Flight Track Log - Related Links

Times and Time Zones

All times are in EDT time to prevent confusion due to time zone crossing. See the DAL268 flight status page for this flight to view local times or setup timezone preferences in your user account.

Time Position Orientation Groundspeed Altitude Reporting Facility
EDT Latitude Longitude Course Direction KTS MPH feet Rate Location/Type
Tue 22:03:23 40.6420 -73.8100 217° Southwest 115 132  Level FlightAware ADS-B
Tue 22:03:35 40.6380 -73.8010 120° Southeast 150 173 632 Level FlightAware ADS-B
Tue 22:03:55 40.6300 -73.7820 119° Southeast 187 215 800 Level FlightAware ADS-B
Tue 22:04:20 40.6200 -73.7560 117° Southeast 202 232 600 1,364 Climbing FlightAware ADS-B
Tue 22:04:39 40.6170 -73.7330 100° East 207 238 1,000 1,231 Climbing FlightAware ADS-B
Tue 22:04:59 40.6160 -73.7070 93° East 220 253 1,400 1,050 Climbing FlightAware ADS-B
Tue 22:05:19 40.6150 -73.6790 93° East 243 280 1,700 857 Climbing FlightAware ADS-B
Tue 22:05:27 40.6170 -73.6670 78° East 252 290 1,800 750 Climbing FlightAware ADS-B
Tue 22:05:35 40.6210 -73.6560 64° Northeast 257 296 1,900 750 Climbing FlightAware ADS-B
Tue 22:05:43 40.6270 -73.6450 54° Northeast 263 303 2,000 643 Climbing FlightAware ADS-B
Tue 22:06:03 40.6440 -73.6220 46° Northeast 274 315 2,200 714 Climbing FlightAware ADS-B
Tue 22:06:25 40.6660 -73.5980 40° Northeast 289 333 2,500 1,000 Climbing FlightAware ADS-B
Tue 22:06:45 40.6880 -73.5740 40° Northeast 301 346 2,900 1,313 Climbing FlightAware ADS-B
Tue 22:06:57 40.7010 -73.5600 39° Northeast 304 350 3,200 2,000 Climbing FlightAware ADS-B
Tue 22:07:21 40.7270 -73.5310 40° Northeast 305 351 4,100 2,333 Climbing FlightAware ADS-B
Tue 22:07:33 40.7400 -73.5170 39° Northeast 304 350 4,600 2,167 Climbing FlightAware ADS-B
Tue 22:07:57 40.7660 -73.4890 39° Northeast 307 353 5,400 2,045 Climbing FlightAware ADS-B
Tue 22:08:17 40.7890 -73.4650 38° Northeast 310 357 6,100 2,250 Climbing FlightAware ADS-B
Tue 22:08:37 40.8120 -73.4410 38° Northeast 310 357 6,900 2,250 Climbing FlightAware ADS-B
Tue 22:08:57 40.8330 -73.4180 40° Northeast 312 359 7,600 2,167 Climbing FlightAware ADS-B
Tue 22:09:13 40.8510 -73.3990 39° Northeast 313 360 8,200 2,294 Climbing FlightAware ADS-B
Tue 22:09:31 40.8720 -73.3770 38° Northeast 312 359 8,900 2,400 Climbing FlightAware ADS-B
Tue 22:09:53 40.8970 -73.3500 39° Northeast 313 360 9,800 1,684 Climbing FlightAware ADS-B
Tue 22:10:28 40.9370 -73.3090 38° Northeast 331 381 10,500 1,031 Climbing FlightAware ADS-B
Tue 22:10:57 40.9780 -73.2810 27° Northeast 350 403 10,900 1,015 Climbing FlightAware ADS-B
Tue 22:11:33 41.0360 -73.2600 15° North 374 430 11,600 1,235 Climbing FlightAware ADS-B
Tue 22:12:05 41.0930 -73.2400 15° North 392 451 12,300 1,636 Climbing FlightAware ADS-B
Tue 22:12:39 41.1530 -73.2190 15° North 402 463 13,400 1,944 Climbing FlightAware ADS-B
Tue 22:13:16 41.2200 -73.1950 15° North 412 474 14,600 1,946 Climbing FlightAware ADS-B
Tue 22:13:53 41.2890 -73.1700 15° North 420 483 15,800 1,971 Climbing FlightAware ADS-B
Tue 22:14:26 41.3510 -73.1450 17° North 432 497 16,900 1,770 Climbing FlightAware ADS-B
Tue 22:14:54 41.3970 -73.0970 38° Northeast 450 518 17,600 1,662 Climbing FlightAware ADS-B
Tue 22:15:31 41.4380 -73.0080 58° Northeast 463 533 18,700 1,583 Climbing FlightAware ADS-B
Tue 22:16:06 41.4730 -72.9280 60° Northeast 472 543 19,500 1,500 Climbing FlightAware ADS-B
Tue 22:16:39 41.5110 -72.8400 60° Northeast 477 549 20,400 1,612 Climbing FlightAware ADS-B
Tue 22:17:13 41.5500 -72.7510 60° Northeast 483 556 21,300 1,437 Climbing FlightAware ADS-B
Tue 22:17:50 41.5920 -72.6550 60° Northeast 490 564 22,100 1,297 Climbing FlightAware ADS-B
Tue 22:18:27 41.6350 -72.5560 60° Northeast 499 574 22,900 1,217 Climbing FlightAware ADS-B
Tue 22:18:59 41.6730 -72.4710 59° Northeast 505 581 23,500 1,254 Climbing FlightAware ADS-B
Tue 22:19:34 41.7160 -72.3790 58° Northeast 508 585 24,300 1,304 Climbing FlightAware ADS-B
Tue 22:20:08 41.7650 -72.2950 52° Northeast 512 589 25,000 1,250 Climbing FlightAware ADS-B
Tue 22:20:46 41.8240 -72.2070 48° Northeast 514 592 25,800 1,263 Climbing FlightAware ADS-B
Tue 22:21:24 41.8780 -72.1250 48° Northeast 516 594 26,600 1,263 Climbing FlightAware ADS-B
Tue 22:22:02 41.9390 -72.0310 49° Northeast 522 601 27,400 1,059 Climbing FlightAware ADS-B
Tue 22:22:32 41.9900 -71.9530 49° Northeast 527 606 27,800 971 Climbing FlightAware ADS-B
Tue 22:23:10 42.0500 -71.8620 48° Northeast 523 602 28,500 1,151 Climbing FlightAware ADS-B
Tue 22:23:45 42.1120 -71.7680 48° Northeast 532 612 29,200 1,111 Climbing FlightAware ADS-B
Tue 22:24:31 42.1840 -71.6570 49° Northeast 535 616 30,000 1,013 Climbing FlightAware ADS-B
Tue 22:25:02 42.2380 -71.5750 48° Northeast 537 618 30,500 909 Climbing FlightAware ADS-B
Tue 22:25:37 42.2950 -71.4870 49° Northeast 540 621 31,000 429 Climbing FlightAware ADS-B
Tue 22:26:12 42.3520 -71.3980 49° Northeast 537 618 31,000  Level FlightAware ADS-B
Tue 22:26:47 42.4090 -71.3100 49° Northeast 535 616 31,000  Level FlightAware ADS-B
Tue 22:27:27 42.4710 -71.2130 49° Northeast 527 606 31,000  Level FlightAware ADS-B
Tue 22:28:07 42.5380 -71.1090 49° Northeast 527 606 31,000  Level FlightAware ADS-B
Tue 22:28:42 42.5950 -71.0190 49° Northeast 528 608 31,000  Level FlightAware ADS-B
Tue 22:29:12 42.6420 -70.9460 49° Northeast 528 608 31,000  Level FlightAware ADS-B
Tue 22:29:47 42.7000 -70.8550 49° Northeast 527 606 31,000  Level FlightAware ADS-B
Tue 22:30:27 42.7630 -70.7550 49° Northeast 525 604 31,000  Level FlightAware ADS-B
Tue 22:31:02 42.8200 -70.6650 49° Northeast 525 604 31,000  Level FlightAware ADS-B
Tue 22:31:32 42.8670 -70.5910 49° Northeast 525 604 31,000  Level FlightAware ADS-B
Tue 22:32:07 42.9200 -70.5060 50° Northeast 524 603 31,000  Level FlightAware ADS-B
Tue 22:32:47 42.9870 -70.3990 49° Northeast 527 606 31,000  Level FlightAware ADS-B
Tue 22:33:19 43.0390 -70.3160 49° Northeast 527 606 31,000  Level FlightAware ADS-B
Tue 22:33:54 43.0860 -70.2400 50° Northeast 528 608 31,000  Level FlightAware ADS-B
Tue 22:34:29 43.1480 -70.1410 49° Northeast 524 603 31,000  Level FlightAware ADS-B
Tue 22:35:04 43.1980 -70.0590 50° Northeast 534 615 31,000  Level FlightAware ADS-B
Tue 22:35:46 43.2710 -69.9420 49° Northeast 535 616 31,000  Level FlightAware ADS-B
Tue 22:36:41 43.3540 -69.8060 50° Northeast 535 616 31,000  Level FlightAware ADS-B
Tue 22:37:16 43.4170 -69.7050 49° Northeast 532 612 31,000  Level FlightAware ADS-B
Tue 22:37:52 43.4750 -69.6090 50° Northeast 533 613 31,000  Level FlightAware ADS-B
Tue 22:38:28 43.5320 -69.5150 50° Northeast 535 616 31,000  Level FlightAware ADS-B
Tue 22:39:19 43.6110 -69.3850 50° Northeast 536 617 31,000  Level FlightAware ADS-B
Tue 22:40:05 43.6850 -69.2620 50° Northeast 538 619 31,000  Level FlightAware ADS-B
Tue 22:40:52 43.7530 -69.1480 50° Northeast 538 619 31,000  Level FlightAware ADS-B
Tue 22:41:28 43.8010 -69.0660 51° Northeast 538 619 31,000  Level FlightAware ADS-B
Tue 22:42:04 43.8490 -68.9840 51° Northeast 538 619 31,000  Level FlightAware ADS-B
Tue 22:42:40 43.8970 -68.9020 51° Northeast 538 619 31,000  Level FlightAware ADS-B
Tue 22:43:14 43.9960 -68.7430 49° Northeast 546 628 31,000  Level FlightAware ADS-B
Tue 22:43:48 44.0500 -68.6520 50° Northeast 546 628 31,000  Level FlightAware ADS-B
Tue 22:44:26 44.1090 -68.5520 51° Northeast 545 627 31,000  Level FlightAware ADS-B
Tue 22:45:00 44.1640 -68.4580 51° Northeast 545 627 31,000  Level FlightAware ADS-B
Tue 22:45:36 44.2200 -68.3630 51° Northeast 545 627 31,000  Level FlightAware ADS-B
Tue 22:46:12 44.2800 -68.2600 51° Northeast 545 627 31,000  Level FlightAware ADS-B
Tue 22:46:42 44.3270 -68.1800 51° Northeast 545 627 31,000  Level FlightAware ADS-B
Tue 22:47:20 44.3860 -68.0770 51° Northeast 545 627 31,000  Level FlightAware ADS-B
Tue 22:47:56 44.4450 -67.9760 51° Northeast 544 626 31,000  Level FlightAware ADS-B
Tue 22:48:33 44.5020 -67.8760 51° Northeast 544 626 31,000  Level FlightAware ADS-B
Tue 22:49:04 44.5510 -67.7920 51° Northeast 544 626 31,000  Level FlightAware ADS-B
Tue 22:49:40 44.6090 -67.6910 51° Northeast 544 626 31,000  Level FlightAware ADS-B
Tue 22:50:16 44.6660 -67.5910 51° Northeast 544 626 31,000  Level FlightAware ADS-B
Tue 22:50:52 44.7230 -67.4910 51° Northeast 544 626 31,000  Level FlightAware ADS-B
Tue 22:51:24 44.7720 -67.4050 51° Northeast 545 627 31,000  Level FlightAware ADS-B
Tue 22:52:00 44.8290 -67.3040 51° Northeast 545 627 31,000  Level FlightAware ADS-B
Tue 22:52:37 44.8870 -67.2010 52° Northeast 536 617 31,000  Level FlightAware ADS-B
Tue 22:53:08 44.9340 -67.1260 48° Northeast 536 617 31,000  Level FlightAware ADS-B
Tue 22:53:39 44.9910 -67.0450 45° Northeast 538 619 31,000  Level FlightAware ADS-B
Tue 22:54:18 45.0520 -66.9600 45° Northeast 539 620 31,000  Level FlightAware ADS-B
Tue 22:55:00 45.1360 -66.8440 44° Northeast 540 621 31,000  Level FlightAware ADS-B
Tue 22:55:36 45.1980 -66.7570 45° Northeast 540 621 31,000  Level FlightAware ADS-B
Tue 22:56:14 45.2670 -66.6600 45° Northeast 540 621 31,000  Level FlightAware ADS-B
Tue 22:56:50 45.3310 -66.5700 45° Northeast 538 619 31,000  Level FlightAware ADS-B
Tue 22:57:22 45.3870 -66.4900 45° Northeast 535 616 31,000  Level FlightAware ADS-B
Tue 22:57:50 45.4340 -66.4240 45° Northeast 533 613 31,000  Level FlightAware ADS-B
Tue 22:58:26 45.4990 -66.3300 45° Northeast 532 612 31,000  Level FlightAware ADS-B
Tue 22:59:02 45.5600 -66.2440 45° Northeast 531 611 31,000  Level FlightAware ADS-B
Tue 22:59:38 45.6240 -66.1510 45° Northeast 531 611 31,000  Level FlightAware ADS-B
Tue 23:00:11 45.6820 -66.0690 45° Northeast 531 611 31,000  Level FlightAware ADS-B
Tue 23:00:48 45.7450 -65.9770 46° Northeast 533 613 31,000  Level FlightAware ADS-B
Tue 23:01:19 45.7990 -65.8980 46° Northeast 535 616 31,000  Level FlightAware ADS-B
Tue 23:01:56 45.8640 -65.8040 45° Northeast 537 618 31,000  Level FlightAware ADS-B
Tue 23:02:32 45.9240 -65.7160 46° Northeast 538 619 31,000  Level FlightAware ADS-B
Tue 23:03:08 45.9890 -65.6220 45° Northeast 538 619 31,000  Level FlightAware ADS-B
Tue 23:03:40 46.0450 -65.5390 46° Northeast 538 619 31,000  Level FlightAware ADS-B
Tue 23:04:09 46.0940 -65.4660 46° Northeast 538 619 31,000  Level FlightAware ADS-B
Tue 23:04:52 46.1700 -65.3550 45° Northeast 537 618 31,000  Level FlightAware ADS-B
Tue 23:05:30 46.2260 -65.2730 45° Northeast 537 618 31,000  Level FlightAware ADS-B
Tue 23:06:06 46.2800 -65.1960 45° Northeast 537 618 31,000  Level FlightAware ADS-B
Tue 23:06:42 46.3340 -65.1180 45° Northeast 537 618 31,000  Level FlightAware ADS-B
Tue 23:07:18 46.3880 -65.0400 45° Northeast 537 618 31,000  Level FlightAware ADS-B
Tue 23:07:55 46.4430 -64.9600 45° Northeast 537 618 31,000  Level FlightAware ADS-B
Tue 23:08:31 46.4960 -64.8820 45° Northeast 537 618 31,000  Level FlightAware ADS-B
Tue 23:09:07 46.5500 -64.8030 45° Northeast 537 618 31,000  Level FlightAware ADS-B
Tue 23:09:43 46.6040 -64.7250 45° Northeast 537 618 31,000  Level FlightAware ADS-B
Tue 23:10:19 46.6580 -64.6470 45° Northeast 537 618 31,000  Level FlightAware ADS-B
Tue 23:10:55 46.7110 -64.5690 45° Northeast 537 618 31,000  Level FlightAware ADS-B
Tue 23:11:28 46.7610 -64.4970 45° Northeast 537 618 31,000  Level FlightAware ADS-B
Tue 23:12:04 46.8140 -64.4180 46° Northeast 537 618 31,000  Level FlightAware ADS-B
Tue 23:12:40 46.8680 -64.3390 45° Northeast 537 618 31,000  Level FlightAware ADS-B
Tue 23:13:16 46.9220 -64.2610 45° Northeast 537 618 31,000  Level FlightAware ADS-B
Tue 23:13:52 46.9760 -64.1820 45° Northeast 537 618 31,000  Level FlightAware ADS-B
Tue 23:14:28 47.0290 -64.1030 45° Northeast 537 618 31,000  Level FlightAware ADS-B
Tue 23:15:11 47.1833 -63.7167 45° Northeast 540 621 31,000  Level Gander Center
Tue 23:16:11 47.2833 -63.5667 45° Northeast 530 610 31,000  Level Gander Center
Tue 23:17:11 47.4000 -63.4000 44° Northeast 530 610 31,000  Level Gander Center
Tue 23:18:11 47.5000 -63.2333 48° Northeast 530 610 31,000  Level Gander Center
Tue 23:19:11 47.5833 -63.0833 50° Northeast 540 621 31,000  Level Gander Center
Tue 23:20:16 47.7000 -62.9000 47° Northeast 530 610 31,000  Level Moncton Center
Tue 23:21:16 47.8000 -62.7333 48° Northeast 540 621 31,000  Level Moncton Center
Tue 23:22:16 47.9000 -62.5667 48° Northeast 540 621 31,000  Level Moncton Center
Tue 23:23:16 48.0000 -62.4000 48° Northeast 530 610 31,000  Level Moncton Center
Tue 23:24:16 48.1000 -62.2333 48° Northeast 530 610 31,000  Level Moncton Center
Tue 23:25:16 48.2000 -62.0667 48° Northeast 530 610 31,000  Level Moncton Center
Tue 23:26:16 48.3167 -61.9000 44° Northeast 530 610 31,000  Level Moncton Center
Tue 23:27:10 48.4000 -61.7333 53° Northeast 540 621 31,000  Level Gander Center
Tue 23:28:10 48.4833 -61.5833 50° Northeast 530 610 31,000  Level Gander Center
Tue 23:29:10 48.5833 -61.4167 48° Northeast 530 610 31,000  Level Gander Center
Tue 23:30:10 48.6833 -61.2333 50° Northeast 530 610 31,000  Level Gander Center
Tue 23:31:10 48.7833 -61.0500 50° Northeast 530 610 31,000  Level Gander Center
Tue 23:32:10 48.8833 -60.9000 45° Northeast 540 621 31,000  Level Gander Center
Tue 23:33:10 48.9667 -60.7167 55° Northeast 530 610 31,000  Level Gander Center
Tue 23:34:10 49.0667 -60.5500 47° Northeast 540 621 31,000  Level Gander Center
Tue 23:35:10 49.1667 -60.3833 47° Northeast 530 610 31,000 -50 Level Gander Center
Tue 23:36:10 49.2667 -60.2000 50° Northeast 540 621 30,900  Descending Gander Center
Tue 23:37:10 49.3667 -60.0167 50° Northeast 540 621 31,000 50 Climbing Gander Center
Tue 23:38:10 49.4667 -59.8500 47° Northeast 540 621 31,000  Level Gander Center
Tue 23:39:10 49.5500 -59.6833 52° Northeast 540 621 31,000  Level Gander Center
Tue 23:45:12 50.1370 -58.5910 52° Northeast 553 636 31,000  Level FlightAware ADS-B
Tue 23:45:47 50.1900 -58.4700 56° Northeast 555 639 31,000  Level FlightAware ADS-B
Tue 23:46:23 50.2430 -58.3470 56° Northeast 556 640 31,000  Level FlightAware ADS-B
Tue 23:47:06 50.2970 -58.2270 55° Northeast 556 640 31,000  Level FlightAware ADS-B
Tue 23:47:54 50.3680 -58.0630 56° Northeast 558 642 31,000  Level FlightAware ADS-B
Tue 23:48:22 50.4160 -57.9500 56° Northeast 560 644 31,000  Level FlightAware ADS-B
Tue 23:49:18 50.4930 -57.7720 56° Northeast 559 643 31,000  Level FlightAware ADS-B
Tue 23:49:54 50.5370 -57.6680 56° Northeast 559 643 31,000  Level FlightAware ADS-B
Tue 23:50:31 50.5830 -57.5620 56° Northeast 559 643 31,000  Level FlightAware ADS-B
Tue 23:51:07 50.6270 -57.4590 56° Northeast 559 643 31,000  Level FlightAware ADS-B
Tue 23:51:44 50.6720 -57.3520 56° Northeast 559 643 31,000  Level FlightAware ADS-B
Tue 23:52:21 50.7180 -57.2460 56° Northeast 559 643 31,000  Level FlightAware ADS-B
Tue 23:52:57 50.7620 -57.1420 56° Northeast 559 643 31,000  Level FlightAware ADS-B
Tue 23:53:33 50.8060 -57.0380 56° Northeast 559 643 31,000  Level FlightAware ADS-B
Tue 23:54:09 50.8510 -56.9350 55° Northeast 559 643 31,000  Level FlightAware ADS-B
Tue 23:54:45 50.8950 -56.8310 56° Northeast 559 643 31,000  Level FlightAware ADS-B
Tue 23:55:22 50.9400 -56.7240 56° Northeast 559 643 31,000  Level FlightAware ADS-B
Tue 23:55:59 50.9860 -56.6170 56° Northeast 559 643 31,000  Level FlightAware ADS-B
Tue 23:56:35 51.0300 -56.5120 56° Northeast 559 643 31,000  Level FlightAware ADS-B
Tue 23:57:11 51.0740 -56.4080 56° Northeast 559 643 31,000  Level FlightAware ADS-B
Tue 23:57:47 51.1190 -56.3030 56° Northeast 559 643 31,000  Level FlightAware ADS-B
Tue 23:58:24 51.1640 -56.1960 56° Northeast 559 643 31,000 506 Level FlightAware ADS-B
Tue 23:59:10 51.3167 -55.6833 56° Northeast 560 644 31,700 894 Climbing Gander Center
Tue 23:59:11 51.3167 -55.6833 56° Northeast 570 656 31,700 645 Level Gander Center
Wed 00:01:11 51.4833 -55.2667 57° Northeast 550 633 33,000 433 Climbing Gander Center
Wed 00:02:11 51.5667 -55.0667 56° Northeast 570 656 33,000  Level Gander Center
Wed 00:04:11 51.7167 -54.6333 61° Northeast 560 644 33,000  Level Gander Center
Wed 00:05:11 51.8167 -54.4000 55° Northeast 570 656 33,000  Level Gander Center
Wed 00:06:11 51.9000 -54.2000 56° Northeast 570 656 33,000  Level Gander Center
Wed 00:07:11 51.9667 -54.0000 62° Northeast 570 656 33,000  Level Gander Center
Wed 00:08:11 52.0500 -53.7667 60° Northeast 570 656 33,000  Level Gander Center
Wed 00:09:11 52.1333 -53.5333 60° Northeast 590 679 33,000  Level Gander Center
Wed 00:10:11 52.2167 -53.3000 60° Northeast 590 679 33,000  Level Gander Center
Wed 00:11:11 52.2833 -53.0500 66° East 600 690 33,000  Level Gander Center
Wed 00:12:11 52.3333 -52.7833 73° East 610 702 33,000  Level Gander Center
Wed 00:13:11 52.4000 -52.5167 68° East 580 667 33,000  Level Gander Center
Wed 00:14:11 52.4500 -52.3000 69° East 600 690 33,000  Level Gander Center
Wed 00:16:11 52.5833 -51.7667 67° East 600 690 33,000  Level Gander Center
Wed 00:17:11 52.6333 -51.5167 72° East 600 690 33,000  Level Gander Center
Wed 00:18:11 52.6833 -51.2500 73° East 600 690 33,000  Level Gander Center
Wed 00:19:11 52.7500 -50.9833 67° East 600 690 33,000  Level Gander Center
Wed 00:20:11 52.8167 -50.7500 65° Northeast 600 690 33,000  Level Gander Center
Wed 00:22:00 52.9189 -50.3350 68° East  Level FlightAware Approximate
Wed 00:29:00 53.3074 -48.7399 67° East  Level FlightAware Approximate
Wed 00:30:00 53.3616 -48.5101 68° East  Level FlightAware Approximate
Wed 00:31:00 53.4153 -48.2796 69° East  Level FlightAware Approximate
Wed 00:32:00 53.4686 -48.0485 69° East  Level FlightAware Approximate
Wed 00:32:00 53.0000 -50.0000 67° East 603 694 33,000  Level ETMS Enhanced Traffic Management System
Wed 00:33:00 53.5215 -47.8168 69° East  Level FlightAware Approximate
Wed 00:34:00 53.5739 -47.5846 69° East  Level FlightAware Approximate
Wed 00:35:00 53.6258 -47.3518 69° East  Level FlightAware Approximate
Wed 00:36:00 53.6773 -47.1185 69° East  Level FlightAware Approximate
Wed 00:37:00 53.7284 -46.8845 70° East  Level FlightAware Approximate
Wed 00:38:00 53.9103 -46.0629 70° East 603 694 33,000  Level FlightAware Transoceanic
Wed 00:39:00 53.9663 -45.7946 71° East 603 694 33,000  Level FlightAware Transoceanic
Wed 00:40:00 54.0218 -45.5254 71° East 603 694 33,000  Level FlightAware Transoceanic
Wed 00:41:00 54.0766 -45.2556 71° East 603 694 33,000  Level FlightAware Transoceanic
Wed 00:42:00 54.1308 -44.9851 71° East 603 694 33,000  Level FlightAware Transoceanic
Wed 00:43:00 54.1844 -44.7138 71° East 603 694 33,000  Level FlightAware Transoceanic
Wed 00:44:00 54.2374 -44.4419 72° East 603 694 33,000  Level FlightAware Transoceanic
Wed 00:45:00 54.2898 -44.1693 72° East 603 694 33,000  Level FlightAware Transoceanic
Wed 00:46:00 54.3415 -43.8959 72° East 603 694 33,000  Level FlightAware Transoceanic
Wed 00:47:00 54.3927 -43.6219 72° East 603 694 33,000  Level FlightAware Transoceanic
Wed 00:48:00 54.4432 -43.3472 73° East 603 694 33,000  Level FlightAware Transoceanic
Wed 00:49:00 54.4931 -43.0719 73° East 603 694 33,000  Level FlightAware Transoceanic
Wed 00:50:00 54.5424 -42.7958 73° East 603 694 33,000  Level FlightAware Transoceanic
Wed 00:51:00 54.5910 -42.5191 73° East 603 694 33,000  Level FlightAware Transoceanic
Wed 00:52:00 54.6390 -42.2418 73° East 603 694 33,000  Level FlightAware Transoceanic
Wed 00:53:00 54.6864 -41.9638 74° East 603 694 33,000  Level FlightAware Transoceanic
Wed 00:54:00 54.7331 -41.6851 74° East 603 694 33,000  Level FlightAware Transoceanic
Wed 00:55:00 54.7792 -41.4058 74° East 603 694 33,000  Level FlightAware Transoceanic
Wed 00:56:00 54.8247 -41.1259 74° East 603 694 33,000  Level FlightAware Transoceanic
Wed 00:57:00 54.8695 -40.8453 75° East 603 694 33,000  Level FlightAware Transoceanic
Wed 00:58:00 54.9136 -40.5642 75° East 603 694 33,000  Level FlightAware Transoceanic
Wed 00:59:00 54.9571 -40.2824 75° East 603 694 33,000  Level FlightAware Transoceanic
Wed 01:00:00 54.9949 -40.0338 75° East  Level FlightAware Approximate
Wed 01:01:00 55.0322 -39.7847 75° East  Level FlightAware Approximate
Wed 01:02:00 55.0261 -39.8181 76° East  Level FlightAware Approximate
Wed 01:03:00 55.0614 -39.5680 76° East  Level FlightAware Approximate
Wed 01:04:00 55.0963 -39.3174 76° East  Level FlightAware Approximate
Wed 01:05:00 55.1306 -39.0664 76° East  Level FlightAware Approximate
Wed 01:06:00 55.1644 -38.8150 77° East  Level FlightAware Approximate
Wed 01:07:00 55.1977 -38.5632 77° East  Level FlightAware Approximate
Wed 01:08:00 55.2305 -38.3110 77° East  Level FlightAware Approximate
Wed 01:09:00 55.2627 -38.0583 77° East  Level FlightAware Approximate
Wed 01:09:00 55.0000 -40.0000 76° East 574 661 33,000  Level ETMS Enhanced Traffic Management System
Wed 01:09:46 55.0000 -40.0000 76° East 574 661 33,000  Level ETMS Enhanced Traffic Management System
Wed 01:10:00 55.2945 -37.8052 77° East  Level FlightAware Approximate
Wed 01:11:00 55.3257 -37.5518 78° East  Level FlightAware Approximate
Wed 01:12:00 55.3563 -37.2979 78° East  Level FlightAware Approximate
Wed 01:13:00 55.3865 -37.0436 78° East  Level FlightAware Approximate
Wed 01:14:00 55.4161 -36.7890 78° East  Level FlightAware Approximate
Wed 01:15:00 55.5155 -35.8965 79° East 574 661 33,000  Level FlightAware Transoceanic
Wed 01:16:00 55.5449 -35.6193 79° East 574 661 33,000  Level FlightAware Transoceanic
Wed 01:17:00 55.5737 -35.3417 80° East 574 661 33,000  Level FlightAware Transoceanic
Wed 01:18:00 55.6019 -35.0636 80° East 574 661 33,000  Level FlightAware Transoceanic
Wed 01:19:00 55.6294 -34.7853 80° East 574 661 33,000  Level FlightAware Transoceanic
Wed 01:20:00 55.6563 -34.5065 80° East 574 661 33,000  Level FlightAware Transoceanic
Wed 01:21:00 55.6826 -34.2273 81° East 574 661 33,000  Level FlightAware Transoceanic
Wed 01:22:00 55.7083 -33.9478 81° East 574 661 33,000  Level FlightAware Transoceanic
Wed 01:23:00 55.7333 -33.6679 81° East 574 661 33,000  Level FlightAware Transoceanic
Wed 01:24:00 55.7577 -33.3876 81° East 574 661 33,000  Level FlightAware Transoceanic
Wed 01:25:00 55.7814 -33.1070 82° East 574 661 33,000  Level FlightAware Transoceanic
Wed 01:26:00 55.8045 -32.8260 82° East 574 661 33,000  Level FlightAware Transoceanic
Wed 01:27:00 55.8270 -32.5448 82° East 574 661 33,000  Level FlightAware Transoceanic
Wed 01:28:00 55.8488 -32.2632 82° East 574 661 33,000  Level FlightAware Transoceanic
Wed 01:29:00 55.8699 -31.9813 82° East 574 661 33,000  Level FlightAware Transoceanic
Wed 01:30:00 55.8905 -31.6991 83° East 574 661 33,000  Level FlightAware Transoceanic
Wed 01:31:00 55.9103 -31.4166 83° East 574 661 33,000  Level FlightAware Transoceanic
Wed 01:32:00 55.9296 -31.1338 83° East 574 661 33,000  Level FlightAware Transoceanic
Wed 01:33:00 55.9482 -30.8507 83° East 574 661 33,000  Level FlightAware Transoceanic
Wed 01:34:00 55.9661 -30.5674 84° East 574 661 33,000  Level FlightAware Transoceanic
Wed 01:35:00 55.9834 -30.2838 84° East 574 661 33,000  Level FlightAware Transoceanic
Wed 01:36:00 55.9988 -30.0214 84° East  Level FlightAware Approximate
Wed 01:37:00 56.0136 -29.7588 84° East  Level FlightAware Approximate
Wed 01:38:00 56.0076 -29.7795 86° East  Level FlightAware Approximate
Wed 01:38:00 56.0000 -30.0000 86° East 558 642 33,000  Level ETMS Enhanced Traffic Management System
Wed 01:39:00 56.0161 -29.5159 87° East  Level FlightAware Approximate
Wed 01:40:00 56.0241 -29.2522 87° East  Level FlightAware Approximate
Wed 01:41:00 56.0315 -28.9884 87° East  Level FlightAware Approximate
Wed 01:42:00 56.0384 -28.7245 87° East  Level FlightAware Approximate
Wed 01:43:00 56.0447 -28.4605 87° East  Level FlightAware Approximate
Wed 01:44:00 56.0505 -28.1965 87° East  Level FlightAware Approximate
Wed 01:45:00 56.0759 -27.5033 88° East 558 642 33,000  Level FlightAware Transoceanic
Wed 01:46:00 56.0812 -27.2253 88° East 558 642 33,000  Level FlightAware Transoceanic
Wed 01:47:00 56.0859 -26.9473 88° East 558 642 33,000  Level FlightAware Transoceanic
Wed 01:48:00 56.0899 -26.6693 89° East 558 642 33,000  Level FlightAware Transoceanic
Wed 01:49:00 56.0934 -26.3911 89° East 558 642 33,000  Level FlightAware Transoceanic
Wed 01:50:00 56.0962 -26.1130 89° East 558 642 33,000  Level FlightAware Transoceanic
Wed 01:51:00 56.0984 -25.8347 89° East 558 642 33,000  Level FlightAware Transoceanic
Wed 01:52:00 56.0999 -25.5565 90° East 558 642 33,000  Level FlightAware Transoceanic
Wed 01:53:00 56.1009 -25.2783 90° East 558 642 33,000  Level FlightAware Transoceanic
Wed 01:54:00 56.1012 -25.0000 90° East 558 642 33,000  Level FlightAware Transoceanic
Wed 01:55:00 56.1009 -24.7217 90° East 558 642 33,000  Level FlightAware Transoceanic
Wed 01:56:00 56.0999 -24.4435 90° East 558 642 33,000  Level FlightAware Transoceanic
Wed 01:57:00 56.0984 -24.1653 91° East 558 642 33,000  Level FlightAware Transoceanic
Wed 01:58:00 56.0962 -23.8870 91° East 558 642 33,000  Level FlightAware Transoceanic
Wed 01:59:00 56.0934 -23.6089 91° East 558 642 33,000  Level FlightAware Transoceanic
Wed 02:00:00 56.0899 -23.3307 91° East 558 642 33,000  Level FlightAware Transoceanic
Wed 02:01:00 56.0859 -23.0527 92° East 558 642 33,000  Level FlightAware Transoceanic
Wed 02:02:00 56.0812 -22.7747 92° East 558 642 33,000  Level FlightAware Transoceanic
Wed 02:03:00 56.0759 -22.4967 92° East 558 642 33,000  Level FlightAware Transoceanic
Wed 02:04:00 56.0699 -22.2189 92° East 558 642 33,000  Level FlightAware Transoceanic
Wed 02:05:00 56.0634 -21.9411 93° East 558 642 33,000  Level FlightAware Transoceanic
Wed 02:06:00 56.0562 -21.6634 93° East 558 642 33,000  Level FlightAware Transoceanic
Wed 02:07:00 56.0484 -21.3859 93° East 558 642 33,000  Level FlightAware Transoceanic
Wed 02:08:00 56.0399 -21.1084 93° East 558 642 33,000  Level FlightAware Transoceanic
Wed 02:09:00 56.0309 -20.8311 93° East 558 642 33,000  Level FlightAware Transoceanic
Wed 02:10:00 56.0212 -20.5539 94° East 558 642 33,000  Level FlightAware Transoceanic
Wed 02:11:00 56.0109 -20.2769 94° East 558 642 33,000  Level FlightAware Transoceanic
Wed 02:12:00 56.0005 -20.0136 94° East  Level FlightAware Approximate
Wed 02:13:00 55.9896 -19.7504 94° East  Level FlightAware Approximate
Wed 02:14:00 55.9749 -19.7676 101° East  Level FlightAware Approximate
Wed 02:15:00 55.9464 -19.5089 101° East  Level FlightAware Approximate
Wed 02:16:00 55.9173 -19.2506 101° East  Level FlightAware Approximate
Wed 02:17:00 55.8877 -18.9926 101° East  Level FlightAware Approximate
Wed 02:18:00 55.8576 -18.7351 102° East  Level FlightAware Approximate
Wed 02:19:00 55.8269 -18.4780 102° East  Level FlightAware Approximate
Wed 02:20:00 55.7957 -18.2213 102° East  Level FlightAware Approximate
Wed 02:21:00 55.7640 -17.9650 102° East  Level FlightAware Approximate
Wed 02:22:00 55.7317 -17.7091 103° East  Level FlightAware Approximate
Wed 02:23:00 55.6989 -17.4536 103° East  Level FlightAware Approximate
Wed 02:24:00 55.6656 -17.1986 103° East  Level FlightAware Approximate
Wed 02:25:00 55.6317 -16.9440 103° East  Level FlightAware Approximate
Wed 02:26:00 55.5973 -16.6898 103° East  Level FlightAware Approximate
Wed 02:27:00 55.5624 -16.4361 104° East  Level FlightAware Approximate
Wed 02:28:00 55.5270 -16.1829 104° East  Level FlightAware Approximate
Wed 02:29:00 55.4910 -15.9301 104° East  Level FlightAware Approximate
Wed 02:30:00 55.4546 -15.6778 104° East  Level FlightAware Approximate
Wed 02:31:00 55.4176 -15.4259 104° East  Level FlightAware Approximate
Wed 02:32:00 55.3801 -15.1745 105° East  Level FlightAware Approximate
Wed 02:33:00 55.3420 -14.9236 105° East  Level FlightAware Approximate
Wed 02:34:00 55.3035 -14.6732 105° East  Level FlightAware Approximate
Wed 02:35:00 55.2654 -14.4291 105° East  Level FlightAware Approximate
Wed 02:36:00 55.2267 -14.1854 105° East  Level FlightAware Approximate
Wed 02:37:00 55.1876 -13.9422 106° East  Level FlightAware Approximate
Wed 02:37:13 55.6080 -13.2770 106° East 550 633 33,000  Level FlightAware ADS-B
Wed 02:37:53 55.5590 -13.1270 120° Southeast 549 632 33,000  Level FlightAware ADS-B
Wed 02:38:00 55.1480 -13.6995 106° East  Level FlightAware Approximate
Wed 02:38:28 55.5100 -12.9810 121° Southeast 548 631 33,000  Level FlightAware ADS-B
Wed 02:39:03 55.4640 -12.8460 121° Southeast 547 629 33,000  Level FlightAware ADS-B
Wed 02:39:38 55.4190 -12.7120 121° Southeast 546 628 33,000  Level FlightAware ADS-B
Wed 02:40:15 55.3730 -12.5770 121° Southeast 546 628 33,000  Level FlightAware ADS-B
Wed 02:40:48 55.3280 -12.4450 121° Southeast 545 627 33,000  Level FlightAware ADS-B
Wed 02:41:28 55.2750 -12.2890 121° Southeast 545 627 33,000  Level FlightAware ADS-B
Wed 02:41:58 55.2360 -12.1770 121° Southeast 545 627 33,000  Level FlightAware ADS-B
Wed 02:42:33 55.1890 -12.0420 121° Southeast 545 627 33,000  Level FlightAware ADS-B
Wed 02:43:08 55.1440 -11.9130 121° Southeast 545 627 33,000  Level FlightAware ADS-B
Wed 02:43:43 55.0980 -11.7810 121° Southeast 549 632 33,000  Level FlightAware ADS-B
Wed 02:44:19 55.0500 -11.6440 121° Southeast 549 632 33,000  Level FlightAware ADS-B
Wed 02:44:53 55.0030 -11.5140 122° Southeast 550 633 33,000  Level FlightAware ADS-B
Wed 02:45:29 54.9560 -11.3810 122° Southeast 549 632 33,000  Level FlightAware ADS-B
Wed 02:46:08 54.9030 -11.2340 122° Southeast 548 631 33,000  Level FlightAware ADS-B
Wed 02:46:38 54.8640 -11.1250 122° Southeast 547 629 33,000  Level FlightAware ADS-B
Wed 02:47:13 54.8160 -10.9910 122° Southeast 547 629 33,000  Level FlightAware ADS-B
Wed 02:47:49 54.7680 -10.8600 122° Southeast 547 629 33,000  Level FlightAware ADS-B
Wed 02:48:23 54.7220 -10.7340 122° Southeast 547 629 33,000  Level FlightAware ADS-B
Wed 02:48:59 54.6740 -10.6020 122° Southeast 547 629 33,000  Level FlightAware ADS-B
Wed 02:49:33 54.6260 -10.4750 123° Southeast 543 625 33,000  Level FlightAware ADS-B
Wed 02:50:08 54.5780 -10.3440 122° Southeast 543 625 33,000  Level FlightAware ADS-B
Wed 02:50:48 54.5240 -10.1990 123° Southeast 544 626 33,000  Level FlightAware ADS-B
Wed 02:51:33 54.4700 -10.0290 119° Southeast 544 626 33,000  Level FlightAware ADS-B
Wed 02:52:08 54.4410 -9.8850 109° East 544 626 33,000  Level FlightAware ADS-B
Wed 02:52:43 54.4140 -9.7450 108° East 543 625 33,000  Level FlightAware ADS-B
Wed 02:53:19 54.3860 -9.5960 108° East 542 624 33,000  Level FlightAware ADS-B
Wed 02:53:53 54.3580 -9.4520 108° East 542 624 33,000  Level FlightAware ADS-B
Wed 02:54:28 54.3300 -9.3110 109° East 540 621 33,000  Level FlightAware ADS-B
Wed 02:55:04 54.3010 -9.1660 109° East 543 625 33,000  Level FlightAware ADS-B
Wed 02:55:38 54.2730 -9.0260 109° East 543 625 33,000  Level FlightAware ADS-B
Wed 02:56:14 54.2450 -8.8830 108° East 543 625 33,000  Level FlightAware ADS-B
Wed 02:56:48 54.2160 -8.7430 109° East 542 624 33,000  Level FlightAware ADS-B
Wed 02:57:23 54.1870 -8.5990 109° East 543 625 33,000  Level FlightAware ADS-B
Wed 02:57:58 54.1600 -8.4650 109° East 542 624 33,000 -87 Level FlightAware ADS-B
Wed 02:58:32 54.1176 -8.3616 109° East 506 582 32,900  Descending FlightAware UK
Wed 02:58:33 54.1290 -8.3160 109° East 541 623 33,000 167 Climbing FlightAware ADS-B
Wed 02:59:08 54.1000 -8.1800 110° East 541 623 33,000  Level FlightAware ADS-B
Wed 02:59:43 54.0710 -8.0360 109° East 541 623 33,000  Level FlightAware ADS-B
Wed 03:00:20 54.0400 -7.8910 110° East 540 621 33,000  Level FlightAware ADS-B
Wed 03:00:52 54.0120 -7.7600 110° East 540 621 33,000  Level FlightAware ADS-B
Wed 03:01:28 53.9810 -7.6140 110° East 539 620 33,000 -86 Level FlightAware ADS-B
Wed 03:02:02 53.9410 -7.5236 110° East 508 585 32,900  Descending FlightAware UK
Wed 03:02:04 53.9500 -7.4710 110° East 538 619 33,000 158 Climbing FlightAware ADS-B
Wed 03:02:40 53.9200 -7.3300 110° East 538 619 33,000  Level FlightAware ADS-B
Wed 03:03:12 53.8920 -7.2010 110° East 537 618 33,000  Level FlightAware ADS-B
Wed 03:03:48 53.8610 -7.0610 111° Southeast 535 616 33,000  Level FlightAware ADS-B
Wed 03:04:25 53.8290 -6.9190 111° Southeast 535 616 33,000  Level FlightAware ADS-B
Wed 03:05:01 53.7980 -6.7770 110° East 534 615 33,000  Level FlightAware ADS-B
Wed 03:05:33 53.7700 -6.6520 111° Southeast 532 612 33,000 -88 Level FlightAware ADS-B
Wed 03:06:09 53.7277 -6.5603 111° Southeast 508 585 32,900  Descending FlightAware UK
Wed 03:06:09 53.7390 -6.5130 111° Southeast 532 612 33,000  Climbing FlightAware ADS-B
Wed 03:06:39 53.7015 -6.4445 111° Southeast 506 582 32,900  Descending FlightAware UK
Wed 03:06:46 53.7060 -6.3690 111° Southeast 531 611 33,000 154 Climbing FlightAware ADS-B
Wed 03:07:18 53.6770 -6.2440 111° Southeast 532 612 33,000  Level FlightAware ADS-B
Wed 03:07:54 53.6450 -6.1050 111° Southeast 533 613 33,000  Level FlightAware ADS-B
Wed 03:08:30 53.6130 -5.9650 111° Southeast 532 612 33,000  Level FlightAware ADS-B
Wed 03:09:02 53.5840 -5.8430 112° Southeast 532 612 33,000  Level FlightAware ADS-B
Wed 03:09:38 53.5520 -5.7030 112° Southeast 534 615 33,000 -162 Level FlightAware ADS-B
Wed 03:09:39 53.5403 -5.7514 112° Southeast 504 580 32,900 -194 Descending FlightAware UK
Wed 03:10:09 53.5130 -5.6361 112° Southeast 506 582 32,900 167 Level FlightAware UK
Wed 03:10:15 53.5190 -5.5650 112° Southeast 535 616 33,000 158 Climbing FlightAware ADS-B
Wed 03:10:47 53.5030 -5.4380 102° East 515 593 33,000  Level FlightAware ADS-B
Wed 03:11:24 53.5010 -5.2930 91° East 514 592 33,000 324 Level FlightAware ADS-B
Wed 03:12:01 53.4950 -5.1410 94° East 517 595 33,400 1,091 Climbing FlightAware ADS-B
Wed 03:12:30 53.4900 -5.0310 94° East 514 592 34,200 1,412 Climbing FlightAware ADS-B
Wed 03:13:09 53.4697 -4.9217 94° East 508 585 35,000 1,231 Climbing FlightAware UK
Wed 03:13:09 53.4800 -4.8740 94° East 509 586 35,000  Level FlightAware ADS-B
Wed 03:13:44 53.4720 -4.7410 94° East 504 580 35,000 -167 Level FlightAware ADS-B
Wed 03:13:45 53.4605 -4.7814 94° East 508 585 34,900 -194 Descending FlightAware UK
Wed 03:14:15 53.4573 -4.6658 94° East 502 578 34,900 194 Level FlightAware UK
Wed 03:14:16 53.4680 -4.6210 94° East 499 574 35,000 158 Climbing FlightAware ADS-B
Wed 03:14:53 53.4630 -4.4680 93° East 497 572 35,000  Level FlightAware ADS-B
Wed 03:15:30 53.4580 -4.3310 93° East 498 573 35,000  Level FlightAware ADS-B
Wed 03:16:05 53.4520 -4.1960 94° East 496 571 35,000  Level FlightAware ADS-B
Wed 03:16:37 53.4470 -4.0720 94° East 495 570 35,000  Level FlightAware ADS-B
Wed 03:17:14 53.4410 -3.9280 94° East 495 570 35,000  Level FlightAware ADS-B
Wed 03:17:49 53.4350 -3.7970 94° East 495 570 35,000  Level FlightAware ADS-B
Wed 03:18:31 53.4264 -3.6316 95° East 500 575 35,000  Level FlightAware ADS-B
Wed 03:18:37 53.4238 -3.6093 101° East 505 581 35,000  Level FlightAware ADS-B
Wed 03:19:10 53.3899 -3.4882 115° Southeast 527 606 35,000  Level FlightAware ADS-B
Wed 03:19:50 53.3262 -3.3643 131° Southeast 533 613 35,000  Level FlightAware ADS-B
Wed 03:20:22 53.2736 -3.2654 132° Southeast 535 616 35,000  Level FlightAware ADS-B
Wed 03:21:03 53.2068 -3.1409 132° Southeast 535 616 35,000  Level FlightAware ADS-B
Wed 03:21:34 53.1549 -3.0442 132° Southeast 537 618 35,000  Level FlightAware ADS-B
Wed 03:22:04 53.1048 -2.9513 132° Southeast 538 619 35,000  Level FlightAware ADS-B
Wed 03:22:35 53.0544 -2.8590 132° Southeast 538 619 35,000  Level FlightAware ADS-B
Wed 03:23:05 53.0033 -2.7659 132° Southeast 537 618 35,000  Level FlightAware ADS-B
Wed 03:23:35 52.9529 -2.6741 132° Southeast 537 618 35,000  Level FlightAware ADS-B
Wed 03:24:08 52.8981 -2.5752 133° Southeast 538 619 35,000  Level FlightAware ADS-B
Wed 03:24:43 52.8391 -2.4692 133° Southeast 539 620 35,000  Level FlightAware ADS-B
Wed 03:25:14 52.7872 -2.3769 133° Southeast 540 621 35,000  Level FlightAware ADS-B
Wed 03:25:45 52.7332 -2.2813 133° Southeast 541 623 35,000  Level FlightAware ADS-B
Wed 03:26:20 52.6736 -2.1762 133° Southeast 541 623 35,000  Level FlightAware ADS-B
Wed 03:26:52 52.6186 -2.0801 133° Southeast 542 624 35,000  Level FlightAware ADS-B
Wed 03:27:23 52.5658 -1.9883 133° Southeast 542 624 35,000  Level FlightAware ADS-B
Wed 03:27:39 52.5361 -1.9412 136° Southeast 549 632 35,000  Level FlightAware ADS-B
Wed 03:27:49 52.5169 -1.9166 142° Southeast 553 636 35,000  Level FlightAware ADS-B
Wed 03:28:20 52.4517 -1.8450 146° Southeast 556 640 35,000  Level FlightAware ADS-B
Wed 03:28:50 52.3871 -1.7755 147° Southeast 556 640 35,000  Level FlightAware ADS-B
Wed 03:29:20 52.3225 -1.7055 147° Southeast 556 640 35,000  Level FlightAware ADS-B
Wed 03:29:54 52.2485 -1.6257 147° Southeast 556 640 35,000  Level FlightAware ADS-B
Wed 03:30:25 52.1863 -1.5501 143° Southeast 554 638 35,000  Level FlightAware ADS-B
Wed 03:30:55 52.1245 -1.4737 143° Southeast 555 639 35,000  Level FlightAware ADS-B
Wed 03:31:26 52.0614 -1.3966 143° Southeast 556 640 35,000  Level FlightAware ADS-B
Wed 03:31:59 51.9931 -1.3139 143° Southeast 556 640 35,000  Level FlightAware ADS-B
Wed 03:32:29 51.9305 -1.2389 144° Southeast 556 640 35,000  Level FlightAware ADS-B
Wed 03:33:00 51.8661 -1.1623 144° Southeast 557 641 35,000  Level FlightAware ADS-B
Wed 03:33:31 51.8030 -1.0879 144° Southeast 556 640 35,000  Level FlightAware ADS-B
Wed 03:34:01 51.7402 -1.0151 144° Southeast 556 640 35,000  Level FlightAware ADS-B
Wed 03:34:31 51.6772 -0.9430 145° Southeast 553 636 35,000  Level FlightAware ADS-B
Wed 03:35:01 51.6139 -0.8711 145° Southeast 552 635 35,000  Level FlightAware ADS-B
Wed 03:35:33 51.5470 -0.7960 145° Southeast 551 634 35,000  Level FlightAware ADS-B
Wed 03:36:04 51.4841 -0.7257 145° Southeast 551 634 35,000  Level FlightAware ADS-B
Wed 03:36:35 51.4178 -0.6527 146° Southeast 551 634 35,000  Level FlightAware ADS-B
Wed 03:37:06 51.3529 -0.5817 146° Southeast 550 633 35,000  Level FlightAware ADS-B
Wed 03:37:36 51.2893 -0.5128 146° Southeast 549 632 35,000  Level FlightAware ADS-B
Wed 03:38:07 51.2249 -0.4441 146° Southeast 548 631 35,000  Level FlightAware ADS-B
Wed 03:38:39 51.1564 -0.3719 146° Southeast 547 629 35,000  Level FlightAware ADS-B
Wed 03:39:10 51.0922 -0.3051 147° Southeast 547 629 35,000  Level FlightAware ADS-B
Wed 03:39:22 51.0675 -0.2782 146° Southeast 540 621 35,000  Level FlightAware ADS-B
Wed 03:39:31 51.0492 -0.2539 140° Southeast 530 610 35,000  Level FlightAware ADS-B
Wed 03:39:40 51.0342 -0.2306 136° Southeast 521 600 35,000  Level FlightAware ADS-B
Wed 03:39:55 51.0117 -0.1870 129° Southeast 507 583 35,000  Level FlightAware ADS-B
Wed 03:40:05 50.9984 -0.1544 123° Southeast 495 570 35,000  Level FlightAware ADS-B
Wed 03:40:15 50.9881 -0.1231 118° Southeast 485 558 35,000  Level FlightAware ADS-B
Wed 03:40:41 50.9701 -0.0379 109° East 460 529 35,000  Level FlightAware ADS-B
Wed 03:40:56 50.9657 0.0086 99° East 448 516 35,000  Level FlightAware ADS-B
Wed 03:41:02 50.9649 0.0299 93° East 441 507 35,000  Level FlightAware ADS-B
Wed 03:41:06 50.9647 0.0414 92° East 438 504 35,000  Level FlightAware ADS-B
Wed 03:41:38 50.9696 0.1424 86° East 428 493 35,000  Level FlightAware ADS-B
Wed 03:42:08 50.9754 0.2362 84° East 427 491 35,000  Level FlightAware ADS-B
Wed 03:42:40 50.9816 0.3367 84° East 428 493 35,000  Level FlightAware ADS-B
Wed 03:43:11 50.9872 0.4333 85° East 431 496 35,000  Level FlightAware ADS-B
Wed 03:43:41 50.9926 0.5282 85° East 433 498 35,000  Level FlightAware ADS-B
Wed 03:44:14 50.9984 0.6327 85° East 434 499 35,000  Level FlightAware ADS-B
Wed 03:44:48 51.0042 0.7401 85° East 434 499 35,000  Level FlightAware ADS-B
Wed 03:45:20 51.0099 0.8413 85° East 435 501 35,000  Level FlightAware ADS-B
Wed 03:45:53 51.0154 0.9449 85° East 435 501 35,000  Level FlightAware ADS-B
Wed 03:46:32 51.0221 1.0705 85° East 434 499 35,000 -75 Level FlightAware ADS-B
Wed 03:47:13 51.0259 1.1502 85° East 496 571 34,900  Descending FlightAware UK
Wed 03:47:24 51.0300 1.2210 85° East 431 496 35,000 118 Climbing FlightAware ADS-B
Wed 03:48:04 51.0370 1.3540 85° East 431 496 35,000  Level FlightAware ADS-B
Wed 03:48:38 51.0420 1.4640 86° East 433 498 35,000  Level FlightAware ADS-B
Wed 03:49:12 51.0480 1.5760 85° East 437 503 35,000 171 Level FlightAware ADS-B
Wed 03:49:48 51.0530 1.6880 86° East 449 517 35,200 358 Climbing FlightAware ADS-B
Wed 03:50:19 51.0500 1.7504 86° East 500 575 35,400 529 Climbing FlightAware UK
Wed 03:50:22 51.0520 1.8040 86° East 476 548 35,500 923 Climbing FlightAware ADS-B
Wed 03:50:58 51.0320 1.9310 104° East 505 581 36,000 783 Climbing FlightAware ADS-B
Wed 03:51:31 51.0000 2.0400 115° Southeast 517 595 36,400 896 Climbing FlightAware ADS-B
Wed 03:52:05 50.9610 2.1610 115° Southeast 517 595 37,000 1,000 Climbing FlightAware ADS-B
Wed 03:52:07 50.9567 2.1225 115° Southeast 504 580 37,000 -188 Level FlightAware UK
Wed 03:52:37 50.9242 2.2238 115° Southeast 502 578 36,900  Descending FlightAware UK
Wed 03:52:43 50.9200 2.2890 115° Southeast 517 595 37,000 158 Climbing FlightAware ADS-B
Wed 03:53:15 50.8860 2.3930 117° Southeast 516 594 37,000  Level FlightAware ADS-B
Wed 03:53:51 50.8480 2.5140 116° Southeast 513 590 37,000  Level FlightAware ADS-B
Wed 03:54:23 50.8150 2.6240 115° Southeast 507 583 37,000  Level FlightAware ADS-B
Wed 03:55:01 50.7790 2.7510 114° Southeast 504 580 37,000  Level FlightAware ADS-B
Wed 03:55:37 50.7460 2.8670 114° Southeast 504 580 37,000  Level FlightAware ADS-B
Wed 03:56:14 50.7090 2.9950 114° Southeast 502 578 37,000  Level FlightAware ADS-B
Wed 03:56:46 50.6770 3.1050 115° Southeast 503 579 37,000 -92 Level FlightAware ADS-B
Wed 03:57:19 50.6433 3.1713 115° Southeast 492 566 36,900  Descending FlightAware UK
Wed 03:57:22 50.6430 3.2210 115° Southeast 504 580 37,000 154 Climbing FlightAware ADS-B
Wed 03:57:58 50.6070 3.3410 115° Southeast 505 581 37,000  Level FlightAware ADS-B
Wed 03:58:28 50.5790 3.4370 115° Southeast 505 581 37,000  Level FlightAware ADS-B
Wed 03:59:04 50.5430 3.5580 115° Southeast 509 586 37,000  Level FlightAware ADS-B
Wed 03:59:42 50.5030 3.6900 115° Southeast 511 588 37,000 -154 Level FlightAware ADS-B
Wed 03:59:43 50.4998 3.6515 115° Southeast 492 566 36,900  Descending FlightAware UK
Wed 04:00:17 50.4690 3.8050 115° Southeast 514 592 37,000 88 Climbing FlightAware ADS-B
Wed 04:00:51 50.4350 3.9170 115° Southeast 515 593 37,000  Level FlightAware ADS-B
Wed 04:01:27 50.3970 4.0410 116° Southeast 517 595 37,000  Level FlightAware ADS-B
Wed 04:02:03 50.3630 4.1530 115° Southeast 519 597 37,000  Level FlightAware ADS-B
Wed 04:02:36 50.3250 4.2790 115° Southeast 521 600 37,000  Level FlightAware ADS-B
Wed 04:03:12 50.2880 4.3990 116° Southeast 524 603 37,000  Level FlightAware ADS-B
Wed 04:03:48 50.2490 4.5250 116° Southeast 525 604 37,000  Level FlightAware ADS-B
Wed 04:04:21 50.2140 4.6350 116° Southeast 527 606 37,000  Level FlightAware ADS-B
Wed 04:05:05 50.1680 4.7820 116° Southeast 529 609 37,000  Level FlightAware ADS-B
Wed 04:05:41 50.1290 4.9080 116° Southeast 529 609 37,000  Level FlightAware ADS-B
Wed 04:06:15 50.0920 5.0260 116° Southeast 528 608 37,000  Level FlightAware ADS-B
Wed 04:06:49 50.0560 5.1380 117° Southeast 529 609 37,000  Level FlightAware ADS-B
Wed 04:07:24 50.0180 5.2570 116° Southeast 529 609 37,000  Level FlightAware ADS-B
Wed 04:08:01 49.9770 5.3870 116° Southeast 530 610 37,000  Level FlightAware ADS-B
Wed 04:08:37 49.9380 5.5090 116° Southeast 530 610 37,000  Level FlightAware ADS-B
Wed 04:09:09 49.9030 5.6160 117° Southeast 531 611 37,000  Level FlightAware ADS-B
Wed 04:09:43 49.8650 5.7330 117° Southeast 531 611 37,000  Level FlightAware ADS-B
Wed 04:10:24 49.8210 5.8670 117° Southeast 529 609 37,000  Level FlightAware ADS-B
Wed 04:10:59 49.7820 5.9870 117° Southeast 529 609 37,000  Level FlightAware ADS-B
Wed 04:11:39 49.7370 6.1260 117° Southeast 529 609 37,000  Level FlightAware ADS-B
Wed 04:12:18 49.6930 6.2580 117° Southeast 529 609 37,000  Level FlightAware ADS-B
Wed 04:12:55 49.6520 6.3800 117° Southeast 529 609 37,000  Level FlightAware ADS-B
Wed 04:13:30 49.6120 6.5000 117° Southeast 529 609 37,000  Level FlightAware ADS-B
Wed 04:14:00 49.5790 6.5970 118° Southeast 529 609 37,000  Level FlightAware ADS-B
Wed 04:14:38 49.5370 6.7230 117° Southeast 528 608 37,000  Level FlightAware ADS-B
Wed 04:15:12 49.4980 6.8390 117° Southeast 527 606 37,000  Level FlightAware ADS-B
Wed 04:15:48 49.4570 6.9590 118° Southeast 526 605 37,000  Level FlightAware ADS-B
Wed 04:16:22 49.4180 7.0720 118° Southeast 525 604 37,000  Level FlightAware ADS-B
Wed 04:17:00 49.3770 7.1930 117° Southeast 523 602 37,000  Level FlightAware ADS-B
Wed 04:17:34 49.3380 7.3040 118° Southeast 521 600 37,000  Level FlightAware ADS-B
Wed 04:18:08 49.3010 7.4130 117° Southeast 520 598 37,000  Level FlightAware ADS-B
Wed 04:18:46 49.2580 7.5380 118° Southeast 519 597 37,000  Level FlightAware ADS-B
Wed 04:19:18 49.2210 7.6420 119° Southeast 519 597 37,000  Level FlightAware ADS-B
Wed 04:19:54 49.1810 7.7560 118° Southeast 519 597 37,000  Level FlightAware ADS-B
Wed 04:20:30 49.1380 7.8770 118° Southeast 519 597 37,000  Level FlightAware ADS-B
Wed 04:21:05 49.1020 7.9810 118° Southeast 520 598 37,000  Level FlightAware ADS-B
Wed 04:21:38 49.0630 8.0910 118° Southeast 521 600 37,000  Level FlightAware ADS-B
Wed 04:22:20 49.0150 8.2250 119° Southeast 522 601 37,000  Level FlightAware ADS-B
Wed 04:22:57 48.9700 8.3470 119° Southeast 524 603 37,000  Level FlightAware ADS-B
Wed 04:23:31 48.9200 8.4530 126° Southeast 526 605 37,000  Level FlightAware ADS-B
Wed 04:24:04 48.8680 8.5420 132° Southeast 527 606 37,000  Level FlightAware ADS-B
Wed 04:24:39 48.8110 8.6340 133° Southeast 527 606 37,000  Level FlightAware ADS-B
Wed 04:25:16 48.7480 8.7340 134° Southeast 525 604 37,000  Level FlightAware ADS-B
Wed 04:25:53 48.6850 8.8350 133° Southeast 526 605 37,000  Level FlightAware ADS-B
Wed 04:26:25 48.6360 8.9130 134° Southeast 526 605 37,000  Level FlightAware ADS-B
Wed 04:27:00 48.5730 9.0140 133° Southeast 527 606 37,000  Level FlightAware ADS-B
Wed 04:27:35 48.5160 9.1030 134° Southeast 527 606 37,000  Level FlightAware ADS-B
Wed 04:28:11 48.4560 9.1980 134° Southeast 527 606 37,000  Level FlightAware ADS-B
Wed 04:28:46 48.3970 9.2900 134° Southeast 526 605 37,000  Level FlightAware ADS-B
Wed 04:29:23 48.3320 9.3920 134° Southeast 526 605 37,000  Level FlightAware ADS-B
Wed 04:29:55 48.2800 9.4730 134° Southeast 526 605 37,000  Level FlightAware ADS-B
Wed 04:30:30 48.2200 9.5570 137° Southeast 526 605 37,000  Level FlightAware ADS-B
Wed 04:31:08 48.1430 9.6470 142° Southeast 525 604 37,000  Level FlightAware ADS-B
Wed 04:31:39 48.0840 9.7070 146° Southeast 524 603 37,000  Level FlightAware ADS-B
Wed 04:32:16 48.0080 9.7840 146° Southeast 524 603 37,000  Level FlightAware ADS-B
Wed 04:32:51 47.9400 9.8540 145° Southeast 525 604 37,000  Level FlightAware ADS-B
Wed 04:33:28 47.8650 9.9320 145° Southeast 524 603 37,000  Level FlightAware ADS-B
Wed 04:34:00 47.8000 10.0000 145° Southeast 524 603 37,000  Level FlightAware ADS-B
Wed 04:34:36 47.7270 10.0770 145° Southeast 524 603 37,000  Level FlightAware ADS-B
Wed 04:35:13 47.6540 10.1520 145° Southeast 521 600 37,000  Level FlightAware ADS-B
Wed 04:35:44 47.5950 10.2130 145° Southeast 520 598 37,000  Level FlightAware ADS-B
Wed 04:36:21 47.5230 10.2880 145° Southeast 519 597 37,000  Level FlightAware ADS-B
Wed 04:36:54 47.4580 10.3550 145° Southeast 518 596 37,000  Level FlightAware ADS-B
Wed 04:37:33 47.3810 10.4330 146° Southeast 516 594 37,000  Level FlightAware ADS-B
Wed 04:38:03 47.3200 10.4950 145° Southeast 516 594 37,000  Level FlightAware ADS-B
Wed 04:38:40 47.2500 10.5660 145° Southeast 515 593 37,000  Level FlightAware ADS-B
Wed 04:39:18 47.1750 10.6420 145° Southeast 514 592 37,000  Level FlightAware ADS-B
Wed 04:39:49 47.1120 10.7050 146° Southeast 514 592 37,000  Level FlightAware ADS-B
Wed 04:40:26 47.0380 10.7720 148° Southeast 511 588 37,000  Level FlightAware ADS-B
Wed 04:40:59 46.9710 10.8250 152° Southeast 509 586 37,000  Level FlightAware ADS-B
Wed 04:41:31 46.9040 10.8730 154° Southeast 508 585 37,000  Level FlightAware ADS-B
Wed 04:42:09 46.8250 10.9280 155° Southeast 507 583 37,000  Level FlightAware ADS-B
Wed 04:42:42 46.7510 10.9790 155° Southeast 505 581 37,000  Level FlightAware ADS-B
Wed 04:43:20 46.6720 11.0330 155° Southeast 503 579 37,000  Level FlightAware ADS-B
Wed 04:43:54 46.5980 11.0830 155° Southeast 501 577 37,000  Level FlightAware ADS-B
Wed 04:44:31 46.5240 11.1340 155° Southeast 501 577 37,000  Level FlightAware ADS-B
Wed 04:45:04 46.4550 11.1810 155° Southeast 499 574 37,000  Level FlightAware ADS-B
Wed 04:45:41 46.3770 11.2340 155° Southeast 497 572 37,000  Level FlightAware ADS-B
Wed 04:46:18 46.3010 11.2850 155° Southeast 496 571 37,000  Level FlightAware ADS-B
Wed 04:46:50 46.2300 11.3330 155° Southeast 496 571 37,000  Level FlightAware ADS-B
Wed 04:47:25 46.1590 11.3810 155° Southeast 497 572 37,000  Level FlightAware ADS-B
Wed 04:48:02 46.0800 11.4340 155° Southeast 497 572 37,000  Level FlightAware ADS-B
Wed 04:48:41 46.0000 11.4870 155° Southeast 495 570 37,000  Level FlightAware ADS-B
Wed 04:49:18 45.9220 11.5390 155° Southeast 495 570 37,000  Level FlightAware ADS-B
Wed 04:49:53 45.8500 11.5860 156° South 497 572 37,000  Level FlightAware ADS-B
Wed 04:50:30 45.7730 11.6380 155° Southeast 496 571 37,000  Level FlightAware ADS-B
Wed 04:51:02 45.7080 11.6890 151° Southeast 503 579 37,000  Level FlightAware ADS-B
Wed 04:51:37 45.6500 11.7720 135° Southeast 516 594 37,000  Level FlightAware ADS-B
Wed 04:52:14 45.6040 11.8820 121° Southeast 521 600 37,000  Level FlightAware ADS-B
Wed 04:52:49 45.5630 11.9820 120° Southeast 523 602 37,000  Level FlightAware ADS-B
Wed 04:53:20 45.5230 12.0790 120° Southeast 524 603 37,000  Level FlightAware ADS-B
Wed 04:53:57 45.4780 12.1880 120° Southeast 524 603 37,000  Level FlightAware ADS-B
Wed 04:54:35 45.4320 12.2990 121° Southeast 525 604 37,000  Level FlightAware ADS-B
Wed 04:55:05 45.3930 12.3890 122° Southeast 526 605 37,000  Level FlightAware ADS-B
Wed 04:55:43 45.3470 12.4980 121° Southeast 527 606 37,000  Level FlightAware ADS-B
Wed 04:56:16 45.3040 12.6010 121° Southeast 527 606 37,000  Level FlightAware ADS-B
Wed 04:56:49 45.2630 12.6960 121° Southeast 528 608 37,000  Level FlightAware ADS-B
Wed 04:57:31 45.2130 12.8150 121° Southeast 530 610 37,000  Level FlightAware ADS-B
Wed 04:58:09 45.1630 12.9300 122° Southeast 529 609 37,000  Level FlightAware ADS-B
Wed 04:58:44 45.1210 13.0260 122° Southeast 529 609 37,000  Level FlightAware ADS-B
Wed 04:59:20 45.0760 13.1320 121° Southeast 527 606 37,000  Level FlightAware ADS-B
Wed 04:59:51 45.0370 13.2190 122° Southeast 526 605 37,000  Level FlightAware ADS-B
Wed 05:00:29 44.9820 13.3400 123° Southeast 521 600 37,000  Level FlightAware ADS-B
Wed 05:01:05 44.9370 13.4410 122° Southeast 519 597 37,000  Level FlightAware ADS-B
Wed 05:01:45 44.8850 13.5550 123° Southeast 520 598 37,000  Level FlightAware ADS-B
Wed 05:02:17 44.8460 13.6400 123° Southeast 520 598 37,000  Level FlightAware ADS-B
Wed 05:02:55 44.7930 13.7570 123° Southeast 517 595 37,000  Level FlightAware ADS-B
Wed 05:03:31 44.7480 13.8560 123° Southeast 515 593 37,000  Level FlightAware ADS-B
Wed 05:04:07 44.7060 13.9470 123° Southeast 519 597 37,000  Level FlightAware ADS-B
Wed 05:04:46 44.6480 14.0740 123° Southeast 513 590 37,000  Level FlightAware ADS-B
Wed 05:05:17 44.6090 14.1570 123° Southeast 514 592 37,000  Level FlightAware ADS-B
Wed 05:05:57 44.5540 14.2750 123° Southeast 513 590 37,000  Level FlightAware ADS-B
Wed 05:06:30 44.5280 14.3320 123° Southeast 518 596 37,000  Level FlightAware ADS-B
Wed 05:07:03 44.4810 14.4320 123° Southeast 516 594 37,000  Level FlightAware ADS-B
Wed 05:07:39 44.4200 14.5620 123° Southeast 516 594 37,000  Level FlightAware ADS-B
Wed 05:08:16 44.3760 14.6540 124° Southeast 512 589 37,000  Level FlightAware ADS-B
Wed 05:08:51 44.3340 14.7450 123° Southeast 518 596 37,000  Level FlightAware ADS-B
Wed 05:09:36 44.2690 14.8810 124° Southeast 520 598 37,000  Level FlightAware ADS-B
Wed 05:10:07 44.2260 14.9710 124° Southeast 520 598 37,000  Level FlightAware ADS-B
Wed 05:10:59 44.1630 15.1050 123° Southeast 520 598 37,000  Level FlightAware ADS-B
Wed 05:11:42 44.0980 15.2380 124° Southeast 521 600 37,000  Level FlightAware ADS-B
Wed 05:12:16 44.0510 15.3350 124° Southeast 522 601 37,000  Level FlightAware ADS-B
Wed 05:12:52 44.0060 15.4300 123° Southeast 523 602 37,000  Level FlightAware ADS-B
Wed 05:13:31 43.9500 15.5450 124° Southeast 523 602 37,000  Level FlightAware ADS-B
Wed 05:14:02 43.9090 15.6280 124° Southeast 523 602 37,000  Level FlightAware ADS-B
Wed 05:14:41 43.8550 15.7380 124° Southeast 524 603 37,000  Level FlightAware ADS-B
Wed 05:15:12 43.8160 15.8190 124° Southeast 523 602 37,000  Level FlightAware ADS-B
Wed 05:15:49 43.7620 15.9290 124° Southeast 523 602 37,000  Level FlightAware ADS-B
Wed 05:16:22 43.7170 16.0190 125° Southeast 523 602 37,000  Level FlightAware ADS-B
Wed 05:17:00 43.6640 16.1260 124° Southeast 524 603 37,000  Level FlightAware ADS-B
Wed 05:17:36 43.6150 16.2260 124° Southeast 525 604 37,000  Level FlightAware ADS-B
Wed 05:18:10 43.5700 16.3150 125° Southeast 525 604 37,000  Level FlightAware ADS-B
Wed 05:18:45 43.5210 16.4130 125° Southeast 524 603 37,000  Level FlightAware ADS-B
Wed 05:19:16 43.4770 16.5010 125° Southeast 525 604 37,000  Level FlightAware ADS-B
Wed 05:19:56 43.4230 16.6090 125° Southeast 523 602 37,000  Level FlightAware ADS-B
Wed 05:20:30 43.3760 16.7030 125° Southeast 523 602 37,000  Level FlightAware ADS-B
Wed 05:21:04 43.3300 16.7940 125° Southeast 522 601 37,000  Level FlightAware ADS-B
Wed 05:21:40 43.2790 16.8940 125° Southeast 519 597 37,000  Level FlightAware ADS-B
Wed 05:22:16 43.2310 16.9890 125° Southeast 517 595 37,000  Level FlightAware ADS-B
Wed 05:22:48 43.1870 17.0740 125° Southeast 517 595 37,000  Level FlightAware ADS-B
Wed 05:23:25 43.1370 17.1730 125° Southeast 517 595 37,000  Level FlightAware ADS-B
Wed 05:24:01 43.0860 17.2710 125° Southeast 516 594 37,000  Level FlightAware ADS-B
Wed 05:24:35 43.0390 17.3620 125° Southeast 515 593 37,000  Level FlightAware ADS-B
Wed 05:25:11 42.9900 17.4580 125° Southeast 514 592 37,000  Level FlightAware ADS-B
Wed 05:25:46 42.9440 17.5480 125° Southeast 515 593 37,000  Level FlightAware ADS-B
Wed 05:26:18 42.9000 17.6320 126° Southeast 516 594 37,000  Level FlightAware ADS-B
Wed 05:26:56 42.8480 17.7310 126° Southeast 515 593 37,000  Level FlightAware ADS-B
Wed 05:27:32 42.7950 17.8320 126° Southeast 516 594 37,000  Level FlightAware ADS-B
Wed 05:28:04 42.7530 17.9140 125° Southeast 517 595 37,000  Level FlightAware ADS-B
Wed 05:28:40 42.7040 18.0070 126° Southeast 517 595 37,000  Level FlightAware ADS-B
Wed 05:29:16 42.6510 18.1040 127° Southeast 514 592 37,000  Level FlightAware ADS-B
Wed 05:29:46 42.6060 18.1750 131° Southeast 511 588 37,000  Level FlightAware ADS-B
Wed 05:30:23 42.5440 18.2630 134° Southeast 509 586 37,000  Level FlightAware ADS-B
Wed 05:30:59 42.4840 18.3450 135° Southeast 509 586 37,000  Level FlightAware ADS-B
Wed 05:31:35 42.4230 18.4270 135° Southeast 509 586 37,000  Level FlightAware ADS-B
Wed 05:32:11 42.3640 18.5060 135° Southeast 509 586 37,000  Level FlightAware ADS-B
Wed 05:32:45 42.3060 18.5830 136° Southeast 509 586 37,000  Level FlightAware ADS-B
Wed 05:33:21 42.2450 18.6630 136° Southeast 509 586 37,000  Level FlightAware ADS-B
Wed 05:33:57 42.1850 18.7420 136° Southeast 510 587 37,000  Level FlightAware ADS-B
Wed 05:34:37 42.1180 18.8310 135° Southeast 510 587 37,000  Level FlightAware ADS-B
Wed 05:35:25 42.0360 18.9370 136° Southeast 509 586 37,000  Level FlightAware ADS-B
Wed 05:36:03 41.9710 19.0170 138° Southeast 509 586 37,000  Level FlightAware ADS-B
Wed 05:36:35 41.9150 19.0830 139° Southeast 507 583 37,000  Level FlightAware ADS-B
Wed 05:37:11 41.8490 19.1560 141° Southeast 508 585 37,000  Level FlightAware ADS-B
Wed 05:37:47 41.7820 19.2300 141° Southeast 508 585 37,000  Level FlightAware ADS-B
Wed 05:38:17 41.7280 19.2890 141° Southeast 507 583 37,000  Level FlightAware ADS-B
Wed 05:38:55 41.6590 19.3650 141° Southeast 508 585 37,000  Level FlightAware ADS-B
Wed 05:39:31 41.5930 19.4350 142° Southeast 506 582 37,000  Level FlightAware ADS-B
Wed 05:40:05 41.5280 19.5010 143° Southeast 507 583 37,000  Level FlightAware ADS-B
Wed 05:40:41 41.4620 19.5670 143° Southeast 506 582 37,000  Level FlightAware ADS-B
Wed 05:41:17 41.3920 19.6320 145° Southeast 503 579 37,000  Level FlightAware ADS-B
Wed 05:41:49 41.3290 19.6850 148° Southeast 503 579 37,000  Level FlightAware ADS-B
Wed 05:42:25 41.2600 19.7460 146° Southeast 503 579 37,000  Level FlightAware ADS-B
Wed 05:43:01 41.1910 19.8050 147° Southeast 502 578 37,000  Level FlightAware ADS-B
Wed 05:43:37 41.1200 19.8690 146° Southeast 507 583 37,000  Level FlightAware ADS-B
Wed 05:44:09 41.0670 19.9380 136° Southeast 511 588 37,000  Level FlightAware ADS-B
Wed 05:44:47 41.0040 20.0280 133° Southeast 516 594 37,000  Level FlightAware ADS-B
Wed 05:45:19 40.9530 20.1040 132° Southeast 516 594 37,000  Level FlightAware ADS-B
Wed 05:45:55 40.8980 20.1870 131° Southeast 515 593 37,000  Level FlightAware ADS-B
Wed 05:46:29 40.8450 20.2680 131° Southeast 515 593 37,000  Level FlightAware ADS-B
Wed 05:47:07 40.7850 20.3580 131° Southeast 512 589 37,000  Level FlightAware ADS-B
Wed 05:47:39 40.7350 20.4330 131° Southeast 513 590 37,000  Level FlightAware ADS-B
Wed 05:48:17 40.6760 20.5220 131° Southeast 515 593 37,000  Level FlightAware ADS-B
Wed 05:48:53 40.6200 20.6060 131° Southeast 515 593 37,000  Level FlightAware ADS-B
Wed 05:49:25 40.5690 20.6820 131° Southeast 512 589 37,000  Level FlightAware ADS-B
Wed 05:49:57 40.5180 20.7580 131° Southeast 509 586 37,000  Level FlightAware ADS-B
Wed 05:50:37 40.4570 20.8490 131° Southeast 508 585 37,000  Level FlightAware ADS-B
Wed 05:51:13 40.4010 20.9350 131° Southeast 513 590 37,000  Level FlightAware ADS-B
Wed 05:51:47 40.3540 21.0190 126° Southeast 516 594 37,000  Level FlightAware ADS-B
Wed 05:52:21 40.3060 21.1080 125° Southeast 516 594 37,000  Level FlightAware ADS-B
Wed 05:52:57 40.2570 21.1970 126° Southeast 516 594 37,000  Level FlightAware ADS-B
Wed 05:53:33 40.2050 21.2890 126° Southeast 518 596 37,000  Level FlightAware ADS-B
Wed 05:54:03 40.1620 21.3640 127° Southeast 515 593 37,000  Level FlightAware ADS-B
Wed 05:54:41 40.1070 21.4600 127° Southeast 516 594 37,000  Level FlightAware ADS-B
Wed 05:55:15 40.0580 21.5450 127° Southeast 517 595 37,000  Level FlightAware ADS-B
Wed 05:55:49 40.0080 21.6310 127° Southeast 518 596 37,000  Level FlightAware ADS-B
Wed 05:56:25 39.9580 21.7190 127° Southeast 518 596 37,000  Level FlightAware ADS-B
Wed 05:57:01 39.9070 21.8090 126° Southeast 517 595 37,000  Level FlightAware ADS-B
Wed 05:57:37 39.8560 21.8990 126° Southeast 517 595 37,000  Level FlightAware ADS-B
Wed 05:58:09 39.8100 21.9790 127° Southeast 520 598 37,000  Level FlightAware ADS-B
Wed 05:58:45 39.7580 22.0700 127° Southeast 521 600 37,000  Level FlightAware ADS-B
Wed 05:59:21 39.7060 22.1600 127° Southeast 521 600 37,000  Level FlightAware ADS-B
Wed 05:59:57 39.6540 22.2490 127° Southeast 523 602 37,000  Level FlightAware ADS-B
Wed 06:00:30 39.6070 22.3310 127° Southeast 526 605 37,000  Level FlightAware ADS-B
Wed 06:01:05 39.5550 22.4220 127° Southeast 525 604 37,000  Level FlightAware ADS-B
Wed 06:01:43 39.4980 22.5180 128° Southeast 522 601 37,000  Level FlightAware ADS-B
Wed 06:02:15 39.4530 22.5950 127° Southeast 522 601 37,000  Level FlightAware ADS-B
Wed 06:02:51 39.4010 22.6840 127° Southeast 522 601 37,000  Level FlightAware ADS-B
Wed 06:03:25 39.3510 22.7710 127° Southeast 521 600 37,000  Level FlightAware ADS-B
Wed 06:03:59 39.3020 22.8540 127° Southeast 521 600 37,000  Level FlightAware ADS-B
Wed 06:04:34 39.2500 22.9420 127° Southeast 516 594 37,000  Level FlightAware ADS-B
Wed 06:05:10 39.1990 23.0270 128° Southeast 514 592 37,000  Level FlightAware ADS-B
Wed 06:05:45 39.1490 23.1120 127° Southeast 513 590 37,000  Level FlightAware ADS-B
Wed 06:06:20 39.0970 23.1980 128° Southeast 510 587 37,000  Level FlightAware ADS-B
Wed 06:06:55 39.0460 23.2840 127° Southeast 510 587 37,000  Level FlightAware ADS-B
Wed 06:07:30 38.9960 23.3670 128° Southeast 510 587 37,000  Level FlightAware ADS-B
Wed 06:08:05 38.9430 23.4560 127° Southeast 509 586 37,000  Level FlightAware ADS-B
Wed 06:08:40 38.8930 23.5390 128° Southeast 507 583 37,000  Level FlightAware ADS-B
Wed 06:09:20 38.8360 23.6330 128° Southeast 506 582 37,000  Level FlightAware ADS-B
Wed 06:09:55 38.7850 23.7170 128° Southeast 505 581 37,000  Level FlightAware ADS-B
Wed 06:10:30 38.7350 23.8000 128° Southeast 505 581 37,000  Level FlightAware ADS-B
Wed 06:11:19 38.6780 23.8930 128° Southeast 512 589 37,000  Level FlightAware ADS-B
Wed 06:12:06 38.5920 24.0330 128° Southeast 512 589 37,000  Level FlightAware ADS-B
Wed 06:12:36 38.5480 24.1050 128° Southeast 514 592 37,000  Level FlightAware ADS-B
Wed 06:13:14 38.4930 24.1960 128° Southeast 514 592 37,000  Level FlightAware ADS-B
Wed 06:13:51 38.4400 24.2820 128° Southeast 512 589 37,000  Level FlightAware ADS-B
Wed 06:14:22 38.3940 24.3560 128° Southeast 511 588 37,000  Level FlightAware ADS-B
Wed 06:14:58 38.3410 24.4410 128° Southeast 511 588 37,000  Level FlightAware ADS-B
Wed 06:15:34 38.2880 24.5260 128° Southeast 510 587 37,000  Level FlightAware ADS-B
Wed 06:16:10 38.2340 24.6120 129° Southeast 509 586 37,000  Level FlightAware ADS-B
Wed 06:16:42 38.1880 24.6860 128° Southeast 508 585 37,000  Level FlightAware ADS-B
Wed 06:17:18 38.1360 24.7700 128° Southeast 506 582 37,000  Level FlightAware ADS-B
Wed 06:17:56 38.0790 24.8590 129° Southeast 505 581 37,000  Level FlightAware ADS-B
Wed 06:18:28 38.0330 24.9330 128° Southeast 505 581 37,000  Level FlightAware ADS-B
Wed 06:19:04 37.9810 25.0150 129° Southeast 506 582 37,000  Level FlightAware ADS-B
Wed 06:19:48 37.9160 25.1180 129° Southeast 507 583 37,000  Level FlightAware ADS-B
Wed 06:20:20 37.8690 25.1920 129° Southeast 507 583 37,000  Level FlightAware ADS-B
Wed 06:20:56 37.8160 25.2760 129° Southeast 505 581 37,000  Level FlightAware ADS-B
Wed 06:21:32 37.7620 25.3590 129° Southeast 504 580 37,000  Level FlightAware ADS-B
Wed 06:22:08 37.7100 25.4410 129° Southeast 503 579 37,000  Level FlightAware ADS-B
Wed 06:22:44 37.6580 25.5220 129° Southeast 502 578 37,000  Level FlightAware ADS-B
Wed 06:23:16 37.6110 25.5960 129° Southeast 501 577 37,000  Level FlightAware ADS-B
Wed 06:23:52 37.5580 25.6780 129° Southeast 502 578 37,000  Level FlightAware ADS-B
Wed 06:24:28 37.5050 25.7600 129° Southeast 503 579 37,000  Level FlightAware ADS-B
Wed 06:25:00 37.4600 25.8290 129° Southeast 503 579 37,000  Level FlightAware ADS-B
Wed 06:25:36 37.4070 25.9100 129° Southeast 503 579 37,000  Level FlightAware ADS-B
Wed 06:26:12 37.3530 25.9940 129° Southeast 503 579 37,000  Level FlightAware ADS-B
Wed 06:26:48 37.3000 26.0760 129° Southeast 502 578 37,000  Level FlightAware ADS-B
Wed 06:27:20 37.2530 26.1470 130° Southeast 501 577 37,000  Level FlightAware ADS-B
Wed 06:27:56 37.2010 26.2270 129° Southeast 501 577 37,000  Level FlightAware ADS-B
Wed 06:28:28 37.1520 26.3010 130° Southeast 502 578 37,000  Level FlightAware ADS-B
Wed 06:29:08 37.0930 26.3910 129° Southeast 502 578 37,000  Level FlightAware ADS-B
Wed 06:29:40 37.0440 26.4650 130° Southeast 502 578 37,000  Level FlightAware ADS-B
Wed 06:30:16 36.9920 26.5440 129° Southeast 503 579 37,000  Level FlightAware ADS-B
Wed 06:30:52 36.9380 26.6250 130° Southeast 502 578 37,000  Level FlightAware ADS-B
Wed 06:31:24 36.8910 26.6970 129° Southeast 503 579 37,000  Level FlightAware ADS-B
Wed 06:32:00 36.8370 26.7780 130° Southeast 503 579 37,000  Level FlightAware ADS-B
Wed 06:32:36 36.7840 26.8580 130° Southeast 503 579 37,000  Level FlightAware ADS-B
Wed 06:33:08 36.7350 26.9310 130° Southeast 504 580 37,000  Level FlightAware ADS-B
Wed 06:33:45 36.6810 27.0100 130° Southeast 506 582 37,000  Level FlightAware ADS-B
Wed 06:34:22 36.6250 27.0950 129° Southeast 507 583 37,000  Level FlightAware ADS-B
Wed 06:35:09 36.5550 27.1990 130° Southeast 506 582 37,000  Level FlightAware ADS-B
Wed 06:35:51 36.5010 27.2810 129° Southeast 506 582 37,000  Level FlightAware ADS-B
Wed 06:36:28 36.4550 27.3520 129° Southeast 506 582 37,000  Level FlightAware ADS-B
Wed 06:37:22 36.3610 27.4880 131° Southeast 507 583 37,000  Level FlightAware ADS-B
Wed 06:37:58 36.3150 27.5570 130° Southeast 507 583 37,000  Level FlightAware ADS-B
Wed 06:38:35 36.2690 27.6280 129° Southeast 507 583 37,000  Level FlightAware ADS-B
Wed 06:39:11 36.2240 27.6970 129° Southeast 507 583 37,000  Level FlightAware ADS-B
Wed 06:39:48 36.1770 27.7680 129° Southeast 507 583 37,000  Level FlightAware ADS-B
Wed 06:40:24 36.1320 27.8370 129° Southeast 507 583 37,000  Level FlightAware ADS-B
Wed 06:40:58 36.0290 27.9700 134° Southeast 505 581 37,000  Level FlightAware ADS-B
Wed 06:41:30 35.9780 28.0440 130° Southeast 505 581 37,000  Level FlightAware ADS-B
Wed 06:42:07 35.9220 28.1250 130° Southeast 505 581 37,000  Level FlightAware ADS-B
Wed 06:42:43 35.8680 28.2040 130° Southeast 506 582 37,000  Level FlightAware ADS-B
Wed 06:43:19 35.8130 28.2820 131° Southeast 507 583 37,000  Level FlightAware ADS-B
Wed 06:43:55 35.7580 28.3620 130° Southeast 507 583 37,000  Level FlightAware ADS-B
Wed 06:44:31 35.7030 28.4410 131° Southeast 507 583 37,000  Level FlightAware ADS-B
Wed 06:45:03 35.6520 28.5130 131° Southeast 507 583 37,000  Level FlightAware ADS-B
Wed 06:45:39 35.5990 28.5900 130° Southeast 507 583 37,000  Level FlightAware ADS-B
Wed 06:46:15 35.5430 28.6690 131° Southeast 507 583 37,000  Level FlightAware ADS-B
Wed 06:46:49 35.4910 28.7420 131° Southeast 506 582 37,000  Level FlightAware ADS-B
Wed 06:47:33 35.4260 28.8350 131° Southeast 500 575 37,000  Level FlightAware ADS-B
Wed 06:48:08 35.3730 28.9110 131° Southeast 499 574 37,000  Level FlightAware ADS-B
Wed 06:48:49 35.3150 28.9930 131° Southeast 499 574 37,000  Level FlightAware ADS-B
Wed 06:49:23 35.2570 29.0740 131° Southeast 498 573 37,000  Level FlightAware ADS-B
Wed 06:49:58 35.2020 29.1510 131° Southeast 498 573 37,000  Level FlightAware ADS-B
Wed 06:50:33 35.1520 29.2210 131° Southeast 499 574 37,000  Level FlightAware ADS-B
Wed 06:51:10 35.1050 29.2890 130° Southeast 499 574 37,000  Level FlightAware ADS-B
Wed 06:52:20 34.9870 29.4520 131° Southeast 499 574 37,000  Level FlightAware ADS-B
Wed 06:53:10 34.9170 29.5510 131° Southeast 499 574 37,000  Level FlightAware ADS-B
Wed 06:53:45 34.8540 29.6370 132° Southeast 500 575 37,000  Level FlightAware ADS-B
Wed 06:54:15 34.8070 29.7010 132° Southeast 501 577 37,000  Level FlightAware ADS-B
Wed 06:54:51 34.7520 29.7780 131° Southeast 500 575 37,000  Level FlightAware ADS-B
Wed 06:55:26 34.6980 29.8520 132° Southeast 499 574 37,000  Level FlightAware ADS-B
Wed 06:56:01 34.6440 29.9260 132° Southeast 498 573 37,000  Level FlightAware ADS-B
Wed 06:56:38 34.5950 29.9960 130° Southeast 498 573 37,000  Level FlightAware ADS-B
Wed 06:57:14 34.5500 30.0610 130° Southeast 498 573 37,000  Level FlightAware ADS-B
Wed 06:57:42 34.5090 30.1490 119° Southeast 509 586 37,000  Level FlightAware ADS-B
Wed 06:58:22 34.4610 30.2480 120° Southeast 505 581 37,000  Level FlightAware ADS-B
Wed 06:58:57 34.4190 30.3380 119° Southeast 509 586 37,000  Level FlightAware ADS-B
Wed 06:59:33 34.3740 30.4300 121° Southeast 511 588 37,000  Level FlightAware ADS-B
Wed 07:00:08 34.3310 30.5190 120° Southeast 512 589 37,000  Level FlightAware ADS-B
Wed 07:00:44 34.2890 30.6060 120° Southeast 512 589 37,000  Level FlightAware ADS-B
Wed 07:01:19 34.2470 30.6910 121° Southeast 512 589 37,000  Level FlightAware ADS-B
Wed 07:01:49 34.2100 30.7670 120° Southeast 512 589 37,000  Level FlightAware ADS-B
Wed 07:02:24 34.1680 30.8520 121° Southeast 513 590 37,000  Level FlightAware ADS-B
Wed 07:03:04 34.1210 30.9490 120° Southeast 514 592 37,000  Level FlightAware ADS-B
Wed 07:03:40 34.0750 31.0420 121° Southeast 512 589 37,000  Level FlightAware ADS-B
Wed 07:04:11 34.0380 31.1180 120° Southeast 512 589 37,000  Level FlightAware ADS-B
Wed 07:04:55 33.9850 31.2250 121° Southeast 514 592 37,000  Level FlightAware ADS-B
Wed 07:05:35 33.9350 31.3270 121° Southeast 515 593 37,000  Level FlightAware ADS-B
Wed 07:06:10 33.8910 31.4150 121° Southeast 517 595 37,000  Level FlightAware ADS-B
Wed 07:06:46 33.8480 31.5020 121° Southeast 518 596 37,000  Level FlightAware ADS-B
Wed 07:07:26 33.7970 31.6040 121° Southeast 518 596 37,000  Level FlightAware ADS-B
Wed 07:08:06 33.7480 31.7030 121° Southeast 519 597 37,000  Level FlightAware ADS-B
Wed 07:08:36 33.7100 31.7780 121° Southeast 519 597 37,000  Level FlightAware ADS-B
Wed 07:09:12 33.6660 31.8650 121° Southeast 520 598 37,000  Level FlightAware ADS-B
Wed 07:09:47 33.6210 31.9560 121° Southeast 525 604 37,000  Level FlightAware ADS-B
Wed 07:10:24 33.5770 32.0430 121° Southeast 525 604 37,000  Level FlightAware ADS-B
Wed 07:10:58 33.5310 32.1320 122° Southeast 525 604 37,000  Level FlightAware ADS-B
Wed 07:11:29 33.4970 32.1990 121° Southeast 526 605 37,000  Level FlightAware ADS-B
Wed 07:12:05 33.4480 32.2970 121° Southeast 525 604 37,000  Level FlightAware ADS-B
Wed 07:12:45 33.3970 32.3970 121° Southeast 526 605 37,000  Level FlightAware ADS-B
Wed 07:13:20 33.3510 32.4870 121° Southeast 526 605 37,000 -250 Level FlightAware ADS-B
Wed 07:13:57 33.3080 32.5700 122° Southeast 528 608 36,700 -1,378 Descending FlightAware ADS-B
Wed 07:14:34 33.2610 32.6630 121° Southeast 525 604 35,300 -2,197 Descending FlightAware ADS-B
Wed 07:15:08 33.2190 32.7440 122° Southeast 514 592 34,100 -2,197 Descending FlightAware ADS-B
Wed 07:15:45 33.1690 32.8400 122° Southeast 500 575 32,700 -2,149 Descending FlightAware ADS-B
Wed 07:16:15 33.1320 32.9120 122° Southeast 489 563 31,700 -2,026 Descending FlightAware ADS-B
Wed 07:17:02 33.0790 33.0150 122° Southeast 475 547 30,100 -2,122 Descending FlightAware ADS-B
Wed 07:17:37 33.0410 33.0910 121° Southeast 465 535 28,800 -2,167 Descending FlightAware ADS-B
Wed 07:18:14 32.9990 33.1740 121° Southeast 450 518 27,500 -1,913 Descending FlightAware ADS-B
Wed 07:18:46 32.9710 33.2300 121° Southeast 440 506 26,600 -1,913 Descending FlightAware ADS-B
Wed 07:19:23 32.9270 33.3150 122° Southeast 422 486 25,300 -2,877 Descending FlightAware ADS-B
Wed 07:19:59 32.8860 33.3880 124° Southeast 432 497 23,100 -3,167 Descending FlightAware ADS-B
Wed 07:20:35 32.8440 33.4560 126° Southeast 426 490 21,500 -2,545 Descending FlightAware ADS-B
Wed 07:21:05 32.8100 33.5130 125° Southeast 420 483 20,300 -2,364 Descending FlightAware ADS-B
Wed 07:21:41 32.7690 33.5800 126° Southeast 411 473 18,900 -2,333 Descending FlightAware ADS-B
Wed 07:22:17 32.7310 33.6460 124° Southeast 403 464 17,500 -2,314 Descending FlightAware ADS-B
Wed 07:22:51 32.6940 33.7080 125° Southeast 395 455 16,200 -2,060 Descending FlightAware ADS-B
Wed 07:23:24 32.6640 33.7580 125° Southeast 389 448 15,200 -2,028 Descending FlightAware ADS-B
Wed 07:24:02 32.6220 33.8270 126° Southeast 377 434 13,800 -2,211 Descending FlightAware ADS-B
Wed 07:24:40 32.5820 33.8930 126° Southeast 368 423 12,400 -2,028 Descending FlightAware ADS-B
Wed 07:25:13 32.5500 33.9470 125° Southeast 359 413 11,400 -1,941 Descending FlightAware ADS-B
Wed 07:25:48 32.5160 34.0030 126° Southeast 351 404 10,200 -1,929 Descending FlightAware ADS-B
Wed 07:26:09 32.4970 34.0350 125° Southeast 347 399 9,600 -1,837 Descending FlightAware ADS-B
Wed 07:26:37 32.4710 34.0780 126° Southeast 340 391 8,700 -1,915 Descending FlightAware ADS-B
Wed 07:26:56 32.4530 34.1080 125° Southeast 338 389 8,100 -1,909 Descending FlightAware ADS-B
Wed 07:27:21 32.4310 34.1450 125° Southeast 336 387 7,300 -1,867 Descending FlightAware ADS-B
Wed 07:27:41 32.4130 34.1740 126° Southeast 331 381 6,700 -1,692 Descending FlightAware ADS-B
Wed 07:28:00 32.3950 34.2030 126° Southeast 327 376 6,200 -1,050 Descending FlightAware ADS-B
Wed 07:28:21 32.3780 34.2320 125° Southeast 315 362 6,000 -207 Descending FlightAware ADS-B
Wed 07:28:58 32.3500 34.2780 126° Southeast 303 349 6,000 82 Level FlightAware ADS-B
Wed 07:29:34 32.3460 34.2830 133° Southeast 270 311 6,100 -118 Climbing FlightAware ADS-B
Wed 07:29:49 32.3140 34.3400 124° Southeast 270 311 5,900 -652 Descending FlightAware ADS-B
Wed 07:30:20 32.2920 34.3790 124° Southeast 273 314 5,600 -600 Descending FlightAware ADS-B
Wed 07:30:39 32.2770 34.4040 125° Southeast 270 311 5,400 -615 Descending FlightAware ADS-B
Wed 07:30:59 32.2630 34.4260 127° Southeast 272 313 5,200 -360 Descending FlightAware ADS-B
Wed 07:31:29 32.2410 34.4620 126° Southeast 274 315 5,100 -120 Descending FlightAware ADS-B
Wed 07:31:49 32.2250 34.4860 128° Southeast 267 307 5,100  Level FlightAware ADS-B
Wed 07:32:14 32.2080 34.5140 126° Southeast 269 310 5,100  Level FlightAware ADS-B
Wed 07:32:34 32.1950 34.5360 125° Southeast 268 308 5,100  Level FlightAware ADS-B
Wed 07:32:49 32.1820 34.5600 123° Southeast 268 308 5,100  Level FlightAware ADS-B
Wed 07:33:19 32.1650 34.5910 123° Southeast 267 307 5,100  Level FlightAware ADS-B
Wed 07:33:49 32.1420 34.6310 124° Southeast 268 308 5,100  Level FlightAware ADS-B
Wed 07:34:09 32.1280 34.6570 122° Southeast 266 306 5,100  Level FlightAware ADS-B
Wed 07:34:34 32.1120 34.6860 123° Southeast 266 306 5,100 -133 Level FlightAware ADS-B
Wed 07:34:54 32.0980 34.7110 123° Southeast 266 306 5,000  Descending FlightAware ADS-B
Wed 07:35:14 32.0860 34.7340 122° Southeast 260 299 5,100 111 Climbing FlightAware ADS-B
Wed 07:35:48 32.0650 34.7720 123° Southeast 228 262 5,100 -107 Level FlightAware ADS-B
Wed 07:36:10 32.0510 34.7940 127° Southeast 230 265 5,000 -286 Descending FlightAware ADS-B
Wed 07:36:30 32.0360 34.8130 133° Southeast 220 253 4,900 -649 Descending FlightAware ADS-B
Wed 07:36:47 32.0260 34.8260 132° Southeast 216 249 4,600 -391 Descending FlightAware ADS-B
Wed 07:37:16 32.0040 34.8520 135° Southeast 212 244 4,600  Level FlightAware ADS-B
Wed 07:37:36 31.9910 34.8670 136° Southeast 207 238 4,600 -706 Level FlightAware ADS-B
Wed 07:38:07 31.9730 34.8870 137° Southeast 200 230 4,000 -1,245 Descending FlightAware ADS-B
Wed 07:38:29 31.9570 34.9110 128° Southeast 192 221 3,500 -1,347 Descending FlightAware ADS-B
Wed 07:38:56 31.9590 34.9370 85° East 183 211 2,900 -1,053 Descending FlightAware ADS-B
Wed 07:39:26 31.9660 34.9640 73° East 180 207 2,500 -462 Descending FlightAware ADS-B
Wed 07:40:01 31.9730 34.9930 74° East 175 201 2,400 -800 Descending FlightAware ADS-B
Wed 07:40:11 31.9860 34.9940 North 156 180 1,900 -1,200 Descending FlightAware ADS-B
Wed 07:40:36 32.0030 34.9900 349° North 152 175 1,700 -462 Descending FlightAware ADS-B
Wed 07:40:50 32.0090 34.9860 331° Northwest 150 173 1,600 -1,200 Descending FlightAware ADS-B
Wed 07:41:06 32.0140 34.9720 293° West 165 190 1,100 -682 Descending FlightAware ADS-B
Wed 07:41:34 32.0150 34.9500 273° West 165 190 1,100  Level FlightAware ADS-B

Login

Don't have an account? Register now (free) for customized features, flight alerts, and more!